Time,TemperatureF,DewpointF,PressureIn,WindDirection,WindDirectionDegrees,WindSpeedMPH,WindSpeedGustMPH,Humidity,HourlyPrecipIn,Conditions,Clouds,dailyrainin,SoftwareType,DateUTC
2013-03-16 00:00:00,60.2,35.2,29.82,South,180,4.4,4.4,39,0.00,,---,0.00,VWS V14.01,2013-03-16 04:00:00,
2013-03-16 00:05:00,60.2,35.2,29.82,South,180,8.7,8.7,39,0.00,,---,0.00,VWS V14.01,2013-03-16 04:05:00,
2013-03-16 00:10:00,60.2,35.2,29.81,SSW,202,3.1,3.1,39,0.00,,---,0.00,VWS V14.01,2013-03-16 04:10:00,
2013-03-16 00:11:00,60.2,35.2,29.81,SSW,202,3.1,3.1,39,0.00,,---,0.00,VWS V14.01,2013-03-16 04:11:00,
2013-03-16 00:15:00,60.2,35.2,29.82,SW,225,0.0,9.6,39,0.00,,---,0.00,VWS V14.01,2013-03-16 04:15:00,
2013-03-16 00:16:00,60.2,35.2,29.82,SW,225,0.0,0.0,39,0.00,,---,0.00,VWS V14.01,2013-03-16 04:16:00,
2013-03-16 00:17:00,60.2,35.2,29.82,SW,225,0.0,0.0,39,0.00,,---,0.00,VWS V14.01,2013-03-16 04:17:00,
2013-03-16 00:20:00,60.2,35.8,29.82,SSW,202,5.3,5.3,40,0.00,,---,0.00,VWS V14.01,2013-03-16 04:20:00,
2013-03-16 00:22:00,60.0,35.6,29.82,South,180,0.0,5.3,40,0.00,,---,0.00,VWS V14.01,2013-03-16 04:22:00,
2013-03-16 00:26:00,60.0,35.6,29.82,SSW,202,4.9,4.9,40,0.00,,---,0.00,VWS V14.01,2013-03-16 04:26:00,
2013-03-16 00:27:00,60.0,35.6,29.81,SW,225,0.0,0.0,40,0.00,,---,0.00,VWS V14.01,2013-03-16 04:27:00,
2013-03-16 00:28:00,60.0,35.6,29.81,SW,225,0.0,0.0,40,0.00,,---,0.00,VWS V14.01,2013-03-16 04:28:00,
2013-03-16 00:32:00,59.7,35.4,29.81,SSW,202,6.4,6.4,40,0.00,,---,0.00,VWS V14.01,2013-03-16 04:32:00,
2013-03-16 00:33:00,59.7,35.4,29.82,SSW,202,6.4,6.4,40,0.00,,---,0.00,VWS V14.01,2013-03-16 04:33:00,
2013-03-16 00:37:00,59.8,35.5,29.81,SSW,202,4.6,4.6,40,0.00,,---,0.00,VWS V14.01,2013-03-16 04:37:00,
2013-03-16 00:38:00,59.8,35.5,29.81,SSW,202,4.6,4.6,40,0.00,,---,0.00,VWS V14.01,2013-03-16 04:38:00,
2013-03-16 00:40:00,60.0,35.6,29.81,SW,225,0.0,0.0,40,0.00,,---,0.00,VWS V14.01,2013-03-16 04:40:00,
2013-03-16 00:42:00,59.8,35.5,29.81,SSW,202,0.0,0.0,40,0.00,,---,0.00,VWS V14.01,2013-03-16 04:42:00,
2013-03-16 00:43:00,59.7,35.4,29.81,South,180,7.8,7.8,40,0.00,,---,0.00,VWS V14.01,2013-03-16 04:43:00,
2013-03-16 00:44:00,59.7,35.4,29.81,South,180,7.8,7.8,40,0.00,,---,0.00,VWS V14.01,2013-03-16 04:44:00,
2013-03-16 00:45:00,59.7,35.4,29.81,SSW,202,0.0,0.0,40,0.00,,---,0.00,VWS V14.01,2013-03-16 04:45:00,
2013-03-16 00:47:00,59.7,35.4,29.81,WSW,248,5.1,5.1,40,0.00,,---,0.00,VWS V14.01,2013-03-16 04:47:00,
2013-03-16 00:48:00,59.7,35.4,29.81,WSW,248,5.1,5.1,40,0.00,,---,0.00,VWS V14.01,2013-03-16 04:48:00,
2013-03-16 00:49:00,59.7,35.4,29.81,SSW,202,6.9,6.9,40,0.00,,---,0.00,VWS V14.01,2013-03-16 04:49:00,
2013-03-16 00:50:00,59.7,35.4,29.81,SSW,202,6.9,6.9,40,0.00,,---,0.00,VWS V14.01,2013-03-16 04:50:00,
2013-03-16 00:53:00,59.7,35.4,29.81,SSW,202,0.0,0.0,40,0.00,,---,0.00,VWS V14.01,2013-03-16 04:53:00,
2013-03-16 00:54:00,59.7,35.4,29.81,South,180,2.2,2.2,40,0.00,,---,0.00,VWS V14.01,2013-03-16 04:54:00,
2013-03-16 00:55:00,59.7,35.4,29.81,South,180,2.2,2.2,40,0.00,,---,0.00,VWS V14.01,2013-03-16 04:55:00,
2013-03-16 00:58:00,59.7,35.4,29.81,South,180,0.0,0.0,40,0.00,,---,0.00,VWS V14.01,2013-03-16 04:58:00,
2013-03-16 00:59:00,59.7,35.4,29.81,South,180,0.0,0.0,40,0.00,,---,0.00,VWS V14.01,2013-03-16 04:59:00,
2013-03-16 01:01:00,59.5,35.2,29.81,SSW,202,1.7,1.7,40,0.00,,---,0.00,VWS V14.01,2013-03-16 05:01:00,
2013-03-16 01:03:00,59.5,35.2,29.81,SSW,202,1.7,1.7,40,0.00,,---,0.00,VWS V14.01,2013-03-16 05:03:00,
2013-03-16 01:04:00,59.5,35.2,29.81,SSW,202,1.7,1.7,40,0.00,,---,0.00,VWS V14.01,2013-03-16 05:04:00,
2013-03-16 01:07:00,59.5,35.2,29.81,SSW,202,1.7,1.7,40,0.00,,---,0.00,VWS V14.01,2013-03-16 05:07:00,
2013-03-16 01:09:00,59.5,35.2,29.81,SSW,202,1.7,1.7,40,0.00,,---,0.00,VWS V14.01,2013-03-16 05:09:00,
2013-03-16 01:10:00,59.5,35.2,29.81,SSW,202,1.7,1.7,40,0.00,,---,0.00,VWS V14.01,2013-03-16 05:10:00,
2013-03-16 01:12:00,59.5,35.2,29.81,SSW,202,1.7,1.7,40,0.00,,---,0.00,VWS V14.01,2013-03-16 05:12:00,
2013-03-16 01:14:00,59.5,35.2,29.81,SSW,202,1.7,1.7,40,0.00,,---,0.00,VWS V14.01,2013-03-16 05:14:00,
2013-03-16 01:15:00,59.5,35.2,29.81,WSW,248,0.0,1.7,40,0.00,,---,0.00,VWS V14.01,2013-03-16 05:15:00,
2013-03-16 01:18:00,59.7,35.4,29.81,West,270,0.0,0.0,40,0.00,,---,0.00,VWS V14.01,2013-03-16 05:18:00,
2013-03-16 01:19:00,59.7,35.4,29.81,SSW,202,0.0,0.0,40,0.00,,---,0.00,VWS V14.01,2013-03-16 05:19:00,
2013-03-16 01:20:00,59.7,35.4,29.81,SSW,202,0.0,0.0,40,0.00,,---,0.00,VWS V14.01,2013-03-16 05:20:00,
2013-03-16 01:23:00,59.5,34.5,29.81,SW,225,0.0,0.0,39,0.00,,---,0.00,VWS V14.01,2013-03-16 05:23:00,
2013-03-16 01:25:00,59.5,34.5,29.81,SW,225,0.0,0.0,39,0.00,,---,0.00,VWS V14.01,2013-03-16 05:25:00,
2013-03-16 01:29:00,59.5,34.5,29.81,SW,225,2.6,2.6,39,0.00,,---,0.00,VWS V14.01,2013-03-16 05:29:00,
2013-03-16 01:30:00,59.5,34.5,29.81,SSW,202,2.0,2.6,39,0.00,,---,0.00,VWS V14.01,2013-03-16 05:30:00,
2013-03-16 01:34:00,59.5,34.5,29.81,WSW,248,0.0,6.0,39,0.00,,---,0.00,VWS V14.01,2013-03-16 05:34:00,
2013-03-16 01:35:00,59.5,34.5,29.81,WSW,248,0.0,0.0,39,0.00,,---,0.00,VWS V14.01,2013-03-16 05:35:00,
2013-03-16 01:36:00,59.3,34.4,29.81,SSW,202,5.5,5.5,39,0.00,,---,0.00,VWS V14.01,2013-03-16 05:36:00,
2013-03-16 01:39:00,59.5,34.5,29.81,South,180,0.0,0.0,39,0.00,,---,0.00,VWS V14.01,2013-03-16 05:39:00,
2013-03-16 01:40:00,59.5,34.5,29.81,SW,225,2.4,2.4,39,0.00,,---,0.00,VWS V14.01,2013-03-16 05:40:00,
2013-03-16 01:42:00,59.5,34.5,29.81,South,180,6.2,6.2,39,0.00,,---,0.00,VWS V14.01,2013-03-16 05:42:00,
2013-03-16 01:44:00,59.5,34.5,29.81,South,180,6.2,6.2,39,0.00,,---,0.00,VWS V14.01,2013-03-16 05:44:00,
2013-03-16 01:45:00,59.3,34.4,29.81,SW,225,0.0,6.2,39,0.00,,---,0.00,VWS V14.01,2013-03-16 05:45:00,
2013-03-16 01:46:00,59.3,34.4,29.81,SW,225,0.0,6.2,39,0.00,,---,0.00,VWS V14.01,2013-03-16 05:46:00,
2013-03-16 01:47:00,59.1,34.2,29.81,SW,225,0.0,0.0,39,0.00,,---,0.00,VWS V14.01,2013-03-16 05:47:00,
2013-03-16 01:50:00,59.1,34.2,29.81,SW,225,1.5,1.5,39,0.00,,---,0.00,VWS V14.01,2013-03-16 05:50:00,
2013-03-16 01:51:00,59.1,34.2,29.81,South,180,0.0,1.5,39,0.00,,---,0.00,VWS V14.01,2013-03-16 05:51:00,
2013-03-16 01:52:00,59.1,34.2,29.81,South,180,0.0,0.0,39,0.00,,---,0.00,VWS V14.01,2013-03-16 05:52:00,
2013-03-16 01:55:00,59.3,34.4,29.81,WSW,248,5.8,5.8,39,0.00,,---,0.00,VWS V14.01,2013-03-16 05:55:00,
2013-03-16 01:56:00,59.3,34.4,29.81,WSW,248,5.8,5.8,39,0.00,,---,0.00,VWS V14.01,2013-03-16 05:56:00,
2013-03-16 01:58:00,59.1,34.2,29.81,SW,225,0.0,5.8,39,0.00,,---,0.00,VWS V14.01,2013-03-16 05:58:00,
2013-03-16 02:00:00,59.1,34.2,29.81,SW,225,0.0,0.0,39,0.00,,---,0.00,VWS V14.01,2013-03-16 06:00:00,
2013-03-16 02:01:00,59.1,34.2,29.81,SW,225,0.0,0.0,39,0.00,,---,0.00,VWS V14.01,2013-03-16 06:01:00,
2013-03-16 02:02:00,59.1,34.2,29.81,SW,225,0.0,0.0,39,0.00,,---,0.00,VWS V14.01,2013-03-16 06:02:00,
2013-03-16 02:03:00,59.1,34.2,29.81,South,180,0.0,0.0,39,0.00,,---,0.00,VWS V14.01,2013-03-16 06:03:00,
2013-03-16 02:06:00,58.9,34.6,29.81,SSW,202,0.0,0.0,40,0.00,,---,0.00,VWS V14.01,2013-03-16 06:06:00,
2013-03-16 02:07:00,58.9,34.6,29.81,SSW,202,0.0,0.0,40,0.00,,---,0.00,VWS V14.01,2013-03-16 06:07:00,
2013-03-16 02:08:00,58.8,34.5,29.81,WSW,248,0.0,0.0,40,0.00,,---,0.00,VWS V14.01,2013-03-16 06:08:00,
2013-03-16 02:12:00,58.6,34.4,29.81,WSW,248,0.0,0.0,40,0.00,,---,0.00,VWS V14.01,2013-03-16 06:12:00,
2013-03-16 02:14:00,58.9,34.6,29.81,SW,225,0.0,0.0,40,0.00,,---,0.00,VWS V14.01,2013-03-16 06:14:00,
2013-03-16 02:17:00,58.8,34.5,29.81,WSW,248,0.0,0.0,40,0.00,,---,0.00,VWS V14.01,2013-03-16 06:17:00,
2013-03-16 02:18:00,58.8,34.5,29.81,WSW,248,0.0,0.0,40,0.00,,---,0.00,VWS V14.01,2013-03-16 06:18:00,
2013-03-16 02:19:00,58.8,34.5,29.81,SSW,202,0.0,0.0,40,0.00,,---,0.00,VWS V14.01,2013-03-16 06:19:00,
2013-03-16 02:22:00,58.9,34.6,29.81,SW,225,0.0,0.0,40,0.00,,---,0.00,VWS V14.01,2013-03-16 06:22:00,
2013-03-16 02:24:00,58.8,34.5,29.81,SW,225,4.6,4.6,40,0.00,,---,0.00,VWS V14.01,2013-03-16 06:24:00,
2013-03-16 02:27:00,58.9,34.6,29.82,South,180,0.0,0.0,40,0.00,,---,0.00,VWS V14.01,2013-03-16 06:27:00,
2013-03-16 02:29:00,58.9,34.6,29.81,WSW,248,0.0,0.0,40,0.00,,---,0.00,VWS V14.01,2013-03-16 06:29:00,
2013-03-16 02:32:00,58.8,34.5,29.82,WSW,248,0.0,0.0,40,0.00,,---,0.00,VWS V14.01,2013-03-16 06:32:00,
2013-03-16 02:34:00,58.8,34.5,29.82,South,180,0.0,0.0,40,0.00,,---,0.00,VWS V14.01,2013-03-16 06:34:00,
2013-03-16 02:35:00,58.8,34.5,29.82,South,180,0.0,0.0,40,0.00,,---,0.00,VWS V14.01,2013-03-16 06:35:00,
2013-03-16 02:37:00,58.9,34.6,29.82,South,180,0.0,0.0,40,0.00,,---,0.00,VWS V14.01,2013-03-16 06:37:00,
2013-03-16 02:39:00,58.9,34.6,29.82,SW,225,0.0,0.0,40,0.00,,---,0.00,VWS V14.01,2013-03-16 06:39:00,
2013-03-16 02:40:00,58.9,34.6,29.82,South,180,0.0,0.0,40,0.00,,---,0.00,VWS V14.01,2013-03-16 06:40:00,
2013-03-16 02:42:00,58.8,34.5,29.82,South,180,0.0,0.0,40,0.00,,---,0.00,VWS V14.01,2013-03-16 06:42:00,
2013-03-16 02:43:00,58.8,34.5,29.82,South,180,0.0,0.0,40,0.00,,---,0.00,VWS V14.01,2013-03-16 06:43:00,
2013-03-16 02:44:00,58.9,34.6,29.82,WSW,248,0.0,0.0,40,0.00,,---,0.00,VWS V14.01,2013-03-16 06:44:00,
2013-03-16 02:45:00,58.9,34.6,29.82,WSW,248,0.0,0.0,40,0.00,,---,0.00,VWS V14.01,2013-03-16 06:45:00,
2013-03-16 02:47:00,58.8,34.5,29.82,West,270,0.0,0.0,40,0.00,,---,0.00,VWS V14.01,2013-03-16 06:47:00,
2013-03-16 02:48:00,58.8,34.5,29.82,West,270,0.0,0.0,40,0.00,,---,0.00,VWS V14.01,2013-03-16 06:48:00,
2013-03-16 02:49:00,58.9,34.6,29.82,WSW,248,0.0,0.0,40,0.00,,---,0.00,VWS V14.01,2013-03-16 06:49:00,
2013-03-16 02:50:00,58.9,34.6,29.82,WSW,248,0.0,0.0,40,0.00,,---,0.00,VWS V14.01,2013-03-16 06:50:00,
2013-03-16 02:53:00,58.9,34.6,29.82,WSW,248,0.0,0.0,40,0.00,,---,0.00,VWS V14.01,2013-03-16 06:53:00,
2013-03-16 02:55:00,58.9,34.6,29.81,WSW,248,0.0,0.0,40,0.00,,---,0.00,VWS V14.01,2013-03-16 06:55:00,
2013-03-16 02:58:00,58.6,34.4,29.81,SSW,202,0.0,0.0,40,0.00,,---,0.00,VWS V14.01,2013-03-16 06:58:00,
2013-03-16 02:59:00,58.6,34.4,29.81,SSW,202,0.0,0.0,40,0.00,,---,0.00,VWS V14.01,2013-03-16 06:59:00,
2013-03-16 03:00:00,58.6,34.4,29.81,SSW,202,0.0,0.0,40,0.00,,---,0.00,VWS V14.01,2013-03-16 07:00:00,
2013-03-16 03:02:00,58.4,34.2,29.81,SSW,202,0.0,0.0,40,0.00,,---,0.00,VWS V14.01,2013-03-16 07:02:00,
2013-03-16 03:03:00,58.4,34.2,29.81,SSW,202,0.0,0.0,40,0.00,,---,0.00,VWS V14.01,2013-03-16 07:03:00,
2013-03-16 03:04:00,58.4,34.2,29.81,SSW,202,2.4,2.4,40,0.00,,---,0.00,VWS V14.01,2013-03-16 07:04:00,
2013-03-16 03:05:00,58.4,34.2,29.81,SSW,202,2.4,2.4,40,0.00,,---,0.00,VWS V14.01,2013-03-16 07:05:00,
2013-03-16 03:07:00,58.2,34.6,29.81,SSW,202,0.0,0.0,41,0.00,,---,0.00,VWS V14.01,2013-03-16 07:07:00,
2013-03-16 03:09:00,58.2,34.6,29.81,SSW,202,0.0,0.0,41,0.00,,---,0.00,VWS V14.01,2013-03-16 07:09:00,
2013-03-16 03:11:00,57.9,34.4,29.81,South,180,2.0,2.0,41,0.00,,---,0.00,VWS V14.01,2013-03-16 07:11:00,
2013-03-16 03:12:00,57.9,34.4,29.81,South,180,2.0,2.0,41,0.00,,---,0.00,VWS V14.01,2013-03-16 07:12:00,
2013-03-16 03:14:00,57.9,34.4,29.81,SSW,202,4.0,4.6,41,0.00,,---,0.00,VWS V14.01,2013-03-16 07:14:00,
2013-03-16 03:16:00,57.9,34.4,29.81,SSW,202,4.0,4.0,41,0.00,,---,0.00,VWS V14.01,2013-03-16 07:16:00,
2013-03-16 03:17:00,57.9,34.4,29.81,South,180,6.0,6.0,41,0.00,,---,0.00,VWS V14.01,2013-03-16 07:17:00,
2013-03-16 03:19:00,57.9,34.4,29.81,South,180,0.0,0.0,41,0.00,,---,0.00,VWS V14.01,2013-03-16 07:19:00,
2013-03-16 03:21:00,57.9,34.4,29.81,South,180,0.0,0.0,41,0.00,,---,0.00,VWS V14.01,2013-03-16 07:21:00,
2013-03-16 03:22:00,57.9,34.4,29.81,South,180,3.8,3.8,41,0.00,,---,0.00,VWS V14.01,2013-03-16 07:22:00,
2013-03-16 03:24:00,57.9,35.0,29.80,South,180,4.0,4.0,42,0.00,,---,0.00,VWS V14.01,2013-03-16 07:24:00,
2013-03-16 03:26:00,57.9,35.0,29.81,SSW,202,0.0,0.0,42,0.00,,---,0.00,VWS V14.01,2013-03-16 07:26:00,
2013-03-16 03:28:00,57.7,34.8,29.81,South,180,0.0,0.0,42,0.00,,---,0.00,VWS V14.01,2013-03-16 07:28:00,
2013-03-16 03:29:00,57.7,34.8,29.81,South,180,3.5,3.5,42,0.00,,---,0.00,VWS V14.01,2013-03-16 07:29:00,
2013-03-16 03:30:00,57.7,34.8,29.81,South,180,3.5,3.5,42,0.00,,---,0.00,VWS V14.01,2013-03-16 07:30:00,
2013-03-16 03:31:00,57.7,34.8,29.81,South,180,4.2,4.2,42,0.00,,---,0.00,VWS V14.01,2013-03-16 07:31:00,
2013-03-16 03:33:00,57.7,34.8,29.80,South,180,6.7,6.7,42,0.00,,---,0.00,VWS V14.01,2013-03-16 07:33:00,
2013-03-16 03:34:00,57.7,34.8,29.80,South,180,6.7,6.7,42,0.00,,---,0.00,VWS V14.01,2013-03-16 07:34:00,
2013-03-16 03:35:00,57.7,34.8,29.80,South,180,6.7,6.7,42,0.00,,---,0.00,VWS V14.01,2013-03-16 07:35:00,
2013-03-16 03:36:00,57.7,34.8,29.80,South,180,4.9,4.9,42,0.00,,---,0.00,VWS V14.01,2013-03-16 07:36:00,
2013-03-16 03:38:00,57.5,34.6,29.80,SSW,202,5.8,5.8,42,0.00,,---,0.00,VWS V14.01,2013-03-16 07:38:00,
2013-03-16 03:40:00,57.7,35.4,29.80,South,180,0.0,5.8,43,0.00,,---,0.00,VWS V14.01,2013-03-16 07:40:00,
2013-03-16 03:42:00,57.7,35.4,29.80,South,180,0.0,0.0,43,0.00,,---,0.00,VWS V14.01,2013-03-16 07:42:00,
2013-03-16 03:43:00,57.5,34.6,29.80,South,180,0.0,0.0,42,0.00,,---,0.00,VWS V14.01,2013-03-16 07:43:00,
2013-03-16 03:45:00,57.3,35.0,29.80,South,180,7.1,7.1,43,0.00,,---,0.00,VWS V14.01,2013-03-16 07:45:00,
2013-03-16 03:47:00,57.5,35.2,29.80,SSW,202,6.4,6.4,43,0.00,,---,0.00,VWS V14.01,2013-03-16 07:47:00,
2013-03-16 03:48:00,57.5,35.2,29.80,South,180,5.3,5.3,43,0.00,,---,0.00,VWS V14.01,2013-03-16 07:48:00,
2013-03-16 03:50:00,57.3,35.0,29.80,SSW,202,6.2,6.2,43,0.00,,---,0.00,VWS V14.01,2013-03-16 07:50:00,
2013-03-16 03:52:00,57.3,35.0,29.80,SSW,202,6.2,6.2,43,0.00,,---,0.00,VWS V14.01,2013-03-16 07:52:00,
2013-03-16 03:53:00,57.3,35.0,29.80,South,180,4.0,4.0,43,0.00,,---,0.00,VWS V14.01,2013-03-16 07:53:00,
2013-03-16 03:55:00,57.5,35.2,29.80,SSW,202,9.3,9.3,43,0.00,,---,0.00,VWS V14.01,2013-03-16 07:55:00,
2013-03-16 03:57:00,57.5,35.2,29.80,South,180,7.6,9.3,43,0.00,,---,0.00,VWS V14.01,2013-03-16 07:57:00,
2013-03-16 03:59:00,57.5,35.2,29.80,South,180,7.6,7.6,43,0.00,,---,0.00,VWS V14.01,2013-03-16 07:59:00,
2013-03-16 04:00:00,57.3,35.0,29.80,South,180,3.1,3.1,43,0.00,,---,0.00,VWS V14.01,2013-03-16 08:00:00,
2013-03-16 04:02:00,57.3,35.0,29.79,South,180,0.0,0.0,43,0.00,,---,0.00,VWS V14.01,2013-03-16 08:02:00,
2013-03-16 04:03:00,57.1,34.8,29.79,SSW,202,6.2,6.2,43,0.00,,---,0.00,VWS V14.01,2013-03-16 08:03:00,
2013-03-16 04:04:00,57.1,34.8,29.79,SSW,202,6.2,6.2,43,0.00,,---,0.00,VWS V14.01,2013-03-16 08:04:00,
2013-03-16 04:06:00,57.1,34.8,29.79,South,180,6.0,6.2,43,0.00,,---,0.00,VWS V14.01,2013-03-16 08:06:00,
2013-03-16 04:08:00,57.1,34.8,29.80,South,180,2.9,6.0,43,0.00,,---,0.00,VWS V14.01,2013-03-16 08:08:00,
2013-03-16 04:09:00,57.1,34.8,29.79,South,180,2.9,2.9,43,0.00,,---,0.00,VWS V14.01,2013-03-16 08:09:00,
2013-03-16 04:12:00,57.1,34.8,29.79,SSE,158,4.0,4.0,43,0.00,,---,0.00,VWS V14.01,2013-03-16 08:12:00,
2013-03-16 04:13:00,57.1,34.8,29.79,SSW,202,3.3,3.3,43,0.00,,---,0.00,VWS V14.01,2013-03-16 08:13:00,
2013-03-16 04:14:00,57.1,34.8,29.79,SSW,202,3.3,3.3,43,0.00,,---,0.00,VWS V14.01,2013-03-16 08:14:00,
2013-03-16 04:17:00,56.8,34.6,29.79,South,180,6.0,6.0,43,0.00,,---,0.00,VWS V14.01,2013-03-16 08:17:00,
2013-03-16 04:19:00,57.0,34.8,29.79,South,180,3.3,3.3,43,0.00,,---,0.00,VWS V14.01,2013-03-16 08:19:00,
2013-03-16 04:22:00,56.8,35.1,29.79,SSW,202,0.0,0.0,44,0.00,,---,0.00,VWS V14.01,2013-03-16 08:22:00,
2013-03-16 04:24:00,56.8,35.1,29.79,SSW,202,0.0,0.0,44,0.00,,---,0.00,VWS V14.01,2013-03-16 08:24:00,
2013-03-16 04:26:00,56.8,34.6,29.79,SSW,202,0.0,0.0,43,0.00,,---,0.00,VWS V14.01,2013-03-16 08:26:00,
2013-03-16 04:27:00,56.8,34.6,29.79,South,180,5.5,5.5,43,0.00,,---,0.00,VWS V14.01,2013-03-16 08:27:00,
2013-03-16 04:29:00,56.8,35.1,29.79,South,180,0.0,5.5,44,0.00,,---,0.00,VWS V14.01,2013-03-16 08:29:00,
2013-03-16 04:31:00,56.8,35.1,29.79,South,180,0.0,0.0,44,0.00,,---,0.00,VWS V14.01,2013-03-16 08:31:00,
2013-03-16 04:32:00,56.8,35.1,29.79,SSW,202,6.9,6.9,44,0.00,,---,0.00,VWS V14.01,2013-03-16 08:32:00,
2013-03-16 04:34:00,56.8,35.1,29.79,SSW,202,6.0,6.0,44,0.00,,---,0.00,VWS V14.01,2013-03-16 08:34:00,
2013-03-16 04:36:00,56.8,35.1,29.78,SSW,202,3.3,3.3,44,0.00,,---,0.00,VWS V14.01,2013-03-16 08:36:00,
2013-03-16 04:37:00,56.6,35.0,29.78,SSE,158,5.1,5.1,44,0.00,,---,0.00,VWS V14.01,2013-03-16 08:37:00,
2013-03-16 04:39:00,56.6,35.0,29.79,South,180,2.2,5.1,44,0.00,,---,0.00,VWS V14.01,2013-03-16 08:39:00,
2013-03-16 04:40:00,56.6,35.0,29.79,South,180,2.2,5.1,44,0.00,,---,0.00,VWS V14.01,2013-03-16 08:40:00,
2013-03-16 04:41:00,56.8,35.1,29.78,South,180,2.2,2.2,44,0.00,,---,0.00,VWS V14.01,2013-03-16 08:41:00,
2013-03-16 04:43:00,56.8,35.1,29.78,South,180,0.0,0.0,44,0.00,,---,0.00,VWS V14.01,2013-03-16 08:43:00,
2013-03-16 04:44:00,57.0,35.3,29.78,South,180,9.8,9.8,44,0.00,,---,0.00,VWS V14.01,2013-03-16 08:44:00,
2013-03-16 04:46:00,57.0,35.3,29.78,South,180,9.8,9.8,44,0.00,,---,0.00,VWS V14.01,2013-03-16 08:46:00,
2013-03-16 04:47:00,56.8,34.6,29.78,South,180,6.7,6.7,43,0.00,,---,0.00,VWS V14.01,2013-03-16 08:47:00,
2013-03-16 04:48:00,56.8,34.6,29.78,South,180,6.7,6.7,43,0.00,,---,0.00,VWS V14.01,2013-03-16 08:48:00,
2013-03-16 04:50:00,56.8,34.6,29.78,South,180,9.8,9.8,43,0.00,,---,0.00,VWS V14.01,2013-03-16 08:50:00,
2013-03-16 04:51:00,56.8,34.6,29.78,South,180,9.8,9.8,43,0.00,,---,0.00,VWS V14.01,2013-03-16 08:51:00,
2013-03-16 04:52:00,56.6,34.4,29.78,SSW,202,10.5,10.5,43,0.00,,---,0.00,VWS V14.01,2013-03-16 08:52:00,
2013-03-16 04:54:00,56.8,34.6,29.78,SSW,202,8.7,8.7,43,0.00,,---,0.00,VWS V14.01,2013-03-16 08:54:00,
2013-03-16 04:55:00,56.8,34.6,29.78,SSW,202,8.7,8.7,43,0.00,,---,0.00,VWS V14.01,2013-03-16 08:55:00,
2013-03-16 04:56:00,56.8,34.6,29.78,South,180,5.1,5.1,43,0.00,,---,0.00,VWS V14.01,2013-03-16 08:56:00,
2013-03-16 04:57:00,56.8,35.1,29.78,South,180,5.1,5.1,44,0.00,,---,0.00,VWS V14.01,2013-03-16 08:57:00,
2013-03-16 05:00:00,56.8,34.6,29.78,SSW,202,7.3,7.3,43,0.00,,---,0.00,VWS V14.01,2013-03-16 09:00:00,
2013-03-16 05:01:00,56.8,34.6,29.78,South,180,9.1,9.1,43,0.00,,---,0.00,VWS V14.01,2013-03-16 09:01:00,
2013-03-16 05:02:00,56.8,34.6,29.78,South,180,9.1,9.1,43,0.00,,---,0.00,VWS V14.01,2013-03-16 09:02:00,
2013-03-16 05:05:00,56.8,34.6,29.79,South,180,4.2,10.7,43,0.00,,---,0.00,VWS V14.01,2013-03-16 09:05:00,
2013-03-16 05:06:00,56.8,34.6,29.78,South,180,4.2,4.2,43,0.00,,---,0.00,VWS V14.01,2013-03-16 09:06:00,
2013-03-16 05:08:00,57.0,34.8,29.79,South,180,5.8,5.8,43,0.00,,---,0.00,VWS V14.01,2013-03-16 09:08:00,
2013-03-16 05:10:00,56.8,34.6,29.79,South,180,8.0,8.0,43,0.00,,---,0.00,VWS V14.01,2013-03-16 09:10:00,
2013-03-16 05:12:00,56.8,34.6,29.78,South,180,6.0,6.0,43,0.00,,---,0.00,VWS V14.01,2013-03-16 09:12:00,
2013-03-16 05:13:00,56.8,34.6,29.79,South,180,6.0,6.0,43,0.00,,---,0.00,VWS V14.01,2013-03-16 09:13:00,
2013-03-16 05:15:00,56.6,34.4,29.79,SSE,158,11.4,11.4,43,0.00,,---,0.00,VWS V14.01,2013-03-16 09:15:00,
2013-03-16 05:16:00,56.6,34.4,29.79,SSE,158,11.4,11.4,43,0.00,,---,0.00,VWS V14.01,2013-03-16 09:16:00,
2013-03-16 05:17:00,56.6,34.4,29.79,SW,225,11.6,11.6,43,0.00,,---,0.00,VWS V14.01,2013-03-16 09:17:00,
2013-03-16 05:18:00,56.6,34.4,29.78,SSE,158,6.7,6.7,43,0.00,,---,0.00,VWS V14.01,2013-03-16 09:18:00,
2013-03-16 05:21:00,56.6,34.4,29.78,South,180,0.0,0.0,43,0.00,,---,0.00,VWS V14.01,2013-03-16 09:21:00,
2013-03-16 05:22:00,56.6,34.4,29.79,South,180,0.0,0.0,43,0.00,,---,0.00,VWS V14.01,2013-03-16 09:22:00,
2013-03-16 05:23:00,56.6,34.4,29.79,South,180,0.0,0.0,43,0.00,,---,0.00,VWS V14.01,2013-03-16 09:23:00,
2013-03-16 05:26:00,56.6,34.4,29.79,South,180,8.9,8.9,43,0.00,,---,0.00,VWS V14.01,2013-03-16 09:26:00,
2013-03-16 05:27:00,56.6,34.4,29.79,South,180,8.9,8.9,43,0.00,,---,0.00,VWS V14.01,2013-03-16 09:27:00,
2013-03-16 05:29:00,56.6,34.4,29.79,SW,225,9.3,9.3,43,0.00,,---,0.00,VWS V14.01,2013-03-16 09:29:00,
2013-03-16 05:31:00,56.6,34.4,29.79,South,180,4.9,9.3,43,0.00,,---,0.00,VWS V14.01,2013-03-16 09:31:00,
2013-03-16 05:33:00,56.6,34.4,29.79,South,180,4.9,4.9,43,0.00,,---,0.00,VWS V14.01,2013-03-16 09:33:00,
2013-03-16 05:34:00,56.6,34.4,29.79,SSW,202,0.0,0.0,43,0.00,,---,0.00,VWS V14.01,2013-03-16 09:34:00,
2013-03-16 05:37:00,56.6,34.4,29.79,South,180,3.8,7.1,43,0.00,,---,0.00,VWS V14.01,2013-03-16 09:37:00,
2013-03-16 05:38:00,56.6,34.4,29.79,South,180,3.8,3.8,43,0.00,,---,0.00,VWS V14.01,2013-03-16 09:38:00,
2013-03-16 05:39:00,56.4,34.2,29.79,SSW,202,5.1,5.1,43,0.00,,---,0.00,VWS V14.01,2013-03-16 09:39:00,
2013-03-16 05:42:00,56.6,34.4,29.79,South,180,2.4,2.4,43,0.00,,---,0.00,VWS V14.01,2013-03-16 09:42:00,
2013-03-16 05:43:00,56.4,34.2,29.79,South,180,0.0,2.4,43,0.00,,---,0.00,VWS V14.01,2013-03-16 09:43:00,
2013-03-16 05:45:00,56.4,34.2,29.79,South,180,0.0,0.0,43,0.00,,---,0.00,VWS V14.01,2013-03-16 09:45:00,
2013-03-16 05:47:00,56.6,34.4,29.79,SW,225,7.6,7.6,43,0.00,,---,0.00,VWS V14.01,2013-03-16 09:47:00,
2013-03-16 05:48:00,56.4,34.2,29.79,South,180,8.5,8.5,43,0.00,,---,0.00,VWS V14.01,2013-03-16 09:48:00,
2013-03-16 05:50:00,56.4,34.2,29.79,SSW,202,6.2,6.2,43,0.00,,---,0.00,VWS V14.01,2013-03-16 09:50:00,
2013-03-16 05:52:00,56.4,34.2,29.79,SSW,202,5.5,5.5,43,0.00,,---,0.00,VWS V14.01,2013-03-16 09:52:00,
2013-03-16 05:54:00,56.4,34.2,29.79,SSW,202,5.5,5.5,43,0.00,,---,0.00,VWS V14.01,2013-03-16 09:54:00,
2013-03-16 05:56:00,56.4,34.2,29.79,South,180,6.2,6.2,43,0.00,,---,0.00,VWS V14.01,2013-03-16 09:56:00,
2013-03-16 05:58:00,56.4,34.2,29.79,South,180,6.2,6.2,43,0.00,,---,0.00,VWS V14.01,2013-03-16 09:58:00,
2013-03-16 05:59:00,56.4,34.2,29.79,South,180,9.1,9.1,43,0.00,,---,0.00,VWS V14.01,2013-03-16 09:59:00,
2013-03-16 06:01:00,56.4,34.2,29.79,South,180,4.9,9.1,43,0.00,,---,0.00,VWS V14.01,2013-03-16 10:01:00,
2013-03-16 06:03:00,56.4,34.2,29.80,South,180,7.3,7.3,43,0.00,,---,0.00,VWS V14.01,2013-03-16 10:03:00,
2013-03-16 06:04:00,56.4,34.2,29.80,South,180,7.3,7.3,43,0.00,,---,0.00,VWS V14.01,2013-03-16 10:04:00,
2013-03-16 06:05:00,56.4,34.2,29.80,South,180,7.3,7.3,43,0.00,,---,0.00,VWS V14.01,2013-03-16 10:05:00,
2013-03-16 06:07:00,56.4,34.2,29.80,South,180,7.1,7.1,43,0.00,,---,0.00,VWS V14.01,2013-03-16 10:07:00,
2013-03-16 06:08:00,56.4,34.2,29.79,South,180,7.1,7.1,43,0.00,,---,0.00,VWS V14.01,2013-03-16 10:08:00,
2013-03-16 06:09:00,56.4,34.2,29.79,South,180,5.8,7.1,43,0.00,,---,0.00,VWS V14.01,2013-03-16 10:09:00,
2013-03-16 06:10:00,56.4,34.2,29.80,South,180,5.8,7.1,43,0.00,,---,0.00,VWS V14.01,2013-03-16 10:10:00,
2013-03-16 06:12:00,56.6,34.4,29.79,South,180,4.9,4.9,43,0.00,,---,0.00,VWS V14.01,2013-03-16 10:12:00,
2013-03-16 06:13:00,56.4,34.2,29.79,SSW,202,5.5,5.5,43,0.00,,---,0.00,VWS V14.01,2013-03-16 10:13:00,
2013-03-16 06:14:00,56.4,34.2,29.80,SSW,202,5.5,5.5,43,0.00,,---,0.00,VWS V14.01,2013-03-16 10:14:00,
2013-03-16 06:15:00,56.4,34.2,29.80,South,180,4.4,5.5,43,0.00,,---,0.00,VWS V14.01,2013-03-16 10:15:00,
2013-03-16 06:18:00,56.4,34.2,29.80,South,180,4.4,4.4,43,0.00,,---,0.00,VWS V14.01,2013-03-16 10:18:00,
2013-03-16 06:19:00,56.4,34.2,29.80,SSE,158,8.7,8.7,43,0.00,,---,0.00,VWS V14.01,2013-03-16 10:19:00,
2013-03-16 06:20:00,56.4,34.2,29.80,SSW,202,5.3,5.3,43,0.00,,---,0.00,VWS V14.01,2013-03-16 10:20:00,
2013-03-16 06:23:00,56.4,34.2,29.79,South,180,5.5,5.5,43,0.00,,---,0.00,VWS V14.01,2013-03-16 10:23:00,
2013-03-16 06:24:00,56.2,34.0,29.80,South,180,6.0,6.0,43,0.00,,---,0.00,VWS V14.01,2013-03-16 10:24:00,
2013-03-16 06:25:00,56.2,34.0,29.80,South,180,6.0,6.0,43,0.00,,---,0.00,VWS V14.01,2013-03-16 10:25:00,
2013-03-16 06:28:00,56.2,34.0,29.80,SSW,202,8.5,8.5,43,0.00,,---,0.00,VWS V14.01,2013-03-16 10:28:00,
2013-03-16 06:29:00,56.2,34.0,29.80,SSW,202,8.5,8.5,43,0.00,,---,0.00,VWS V14.01,2013-03-16 10:29:00,
2013-03-16 06:30:00,56.4,34.2,29.80,South,180,6.0,6.0,43,0.00,,---,0.00,VWS V14.01,2013-03-16 10:30:00,
2013-03-16 06:33:00,56.4,34.2,29.80,South,180,0.0,0.0,43,0.00,,---,0.00,VWS V14.01,2013-03-16 10:33:00,
2013-03-16 06:34:00,56.4,34.2,29.80,South,180,0.0,0.0,43,0.00,,---,0.00,VWS V14.01,2013-03-16 10:34:00,
2013-03-16 06:37:00,56.1,33.9,29.80,SW,225,0.0,0.0,43,0.00,,---,0.00,VWS V14.01,2013-03-16 10:37:00,
2013-03-16 06:38:00,56.1,33.9,29.80,South,180,7.6,7.6,43,0.00,,---,0.00,VWS V14.01,2013-03-16 10:38:00,
2013-03-16 06:39:00,56.1,33.9,29.80,South,180,3.8,7.6,43,0.00,,---,0.00,VWS V14.01,2013-03-16 10:39:00,
2013-03-16 06:42:00,56.1,33.9,29.80,SSW,202,12.0,12.0,43,0.00,,---,0.00,VWS V14.01,2013-03-16 10:42:00,
2013-03-16 06:44:00,56.1,33.9,29.80,SSW,202,7.3,7.3,43,0.00,,---,0.00,VWS V14.01,2013-03-16 10:44:00,
2013-03-16 06:45:00,56.1,33.9,29.80,SSW,202,7.3,7.3,43,0.00,,---,0.00,VWS V14.01,2013-03-16 10:45:00,
2013-03-16 06:47:00,55.9,33.8,29.80,South,180,8.5,8.5,43,0.00,,---,0.00,VWS V14.01,2013-03-16 10:47:00,
2013-03-16 06:49:00,55.9,33.8,29.80,South,180,8.5,8.5,43,0.00,,---,0.00,VWS V14.01,2013-03-16 10:49:00,
2013-03-16 06:50:00,56.1,34.5,29.80,SSW,202,0.0,8.5,44,0.00,,---,0.00,VWS V14.01,2013-03-16 10:50:00,
2013-03-16 06:52:00,56.1,33.9,29.80,South,180,9.8,9.8,43,0.00,,---,0.00,VWS V14.01,2013-03-16 10:52:00,
2013-03-16 06:54:00,56.1,33.9,29.80,SSE,158,7.3,7.3,43,0.00,,---,0.00,VWS V14.01,2013-03-16 10:54:00,
2013-03-16 06:55:00,56.1,33.9,29.80,SSE,158,7.3,7.3,43,0.00,,---,0.00,VWS V14.01,2013-03-16 10:55:00,
2013-03-16 06:56:00,56.1,33.9,29.80,SSE,158,7.3,7.3,43,0.00,,---,0.00,VWS V14.01,2013-03-16 10:56:00,
2013-03-16 06:57:00,56.1,33.9,29.80,South,180,7.6,7.6,43,0.00,,---,0.00,VWS V14.01,2013-03-16 10:57:00,
2013-03-16 07:00:00,55.9,34.3,29.80,South,180,5.3,7.6,44,0.00,,---,0.00,VWS V14.01,2013-03-16 11:00:00,
2013-03-16 07:02:00,56.1,34.5,29.80,SSW,202,7.8,7.8,44,0.00,,---,0.00,VWS V14.01,2013-03-16 11:02:00,
2013-03-16 07:05:00,56.1,34.5,29.80,SSE,158,4.9,4.9,44,0.00,,---,0.00,VWS V14.01,2013-03-16 11:05:00,
2013-03-16 07:07:00,56.1,33.9,29.80,SSW,202,4.4,4.9,43,0.00,,---,0.00,VWS V14.01,2013-03-16 11:07:00,
2013-03-16 07:08:00,56.1,33.9,29.80,SSW,202,4.4,4.9,43,0.00,,---,0.00,VWS V14.01,2013-03-16 11:08:00,
2013-03-16 07:10:00,56.1,33.9,29.80,South,180,6.7,6.7,43,0.00,,---,0.00,VWS V14.01,2013-03-16 11:10:00,
2013-03-16 07:12:00,55.9,33.8,29.80,South,180,5.8,5.8,43,0.00,,---,0.00,VWS V14.01,2013-03-16 11:12:00,
2013-03-16 07:13:00,56.1,34.5,29.80,South,180,2.4,5.8,44,0.00,,---,0.00,VWS V14.01,2013-03-16 11:13:00,
2013-03-16 07:15:00,55.9,33.8,29.80,SSW,202,0.0,2.4,43,0.00,,---,0.00,VWS V14.01,2013-03-16 11:15:00,
2013-03-16 07:16:00,55.9,33.8,29.80,SSW,202,0.0,2.4,43,0.00,,---,0.00,VWS V14.01,2013-03-16 11:16:00,
2013-03-16 07:17:00,55.9,34.3,29.79,South,180,0.0,0.0,44,0.00,,---,0.00,VWS V14.01,2013-03-16 11:17:00,
2013-03-16 07:19:00,55.9,34.3,29.80,South,180,3.1,3.1,44,0.00,,---,0.00,VWS V14.01,2013-03-16 11:19:00,
2013-03-16 07:21:00,55.9,34.3,29.80,South,180,3.1,3.1,44,0.00,,---,0.00,VWS V14.01,2013-03-16 11:21:00,
2013-03-16 07:22:00,55.9,34.3,29.80,SSE,158,9.1,9.1,44,0.00,,---,0.00,VWS V14.01,2013-03-16 11:22:00,
2013-03-16 07:24:00,55.9,34.3,29.80,SSW,202,5.3,5.3,44,0.00,,---,0.00,VWS V14.01,2013-03-16 11:24:00,
2013-03-16 07:26:00,55.9,34.3,29.80,SSW,202,5.3,5.3,44,0.00,,---,0.00,VWS V14.01,2013-03-16 11:26:00,
2013-03-16 07:27:00,55.5,34.0,29.80,SSW,202,5.8,5.8,44,0.00,,---,0.00,VWS V14.01,2013-03-16 11:27:00,
2013-03-16 07:29:00,55.5,34.0,29.80,South,180,0.0,0.0,44,0.00,,---,0.00,VWS V14.01,2013-03-16 11:29:00,
2013-03-16 07:31:00,55.5,34.0,29.80,SSE,158,4.2,4.2,44,0.00,,---,0.00,VWS V14.01,2013-03-16 11:31:00,
2013-03-16 07:32:00,55.5,34.0,29.80,South,180,0.0,0.0,44,0.00,,---,0.00,VWS V14.01,2013-03-16 11:32:00,
2013-03-16 07:33:00,55.5,34.0,29.80,South,180,0.0,0.0,44,0.00,,---,0.00,VWS V14.01,2013-03-16 11:33:00,
2013-03-16 07:34:00,55.5,34.0,29.80,South,180,0.0,0.0,44,0.00,,---,0.00,VWS V14.01,2013-03-16 11:34:00,
2013-03-16 07:37:00,55.5,34.0,29.80,South,180,4.0,4.0,44,0.00,,---,0.00,VWS V14.01,2013-03-16 11:37:00,
2013-03-16 07:38:00,55.5,34.0,29.80,South,180,4.0,4.0,44,0.00,,---,0.00,VWS V14.01,2013-03-16 11:38:00,
2013-03-16 07:39:00,55.3,33.8,29.80,South,180,4.0,4.0,44,0.00,,---,0.00,VWS V14.01,2013-03-16 11:39:00,
2013-03-16 07:42:00,55.3,33.8,29.80,South,180,3.1,3.1,44,0.00,,---,0.00,VWS V14.01,2013-03-16 11:42:00,
2013-03-16 07:43:00,55.3,33.8,29.80,South,180,4.9,4.9,44,0.00,,---,0.00,VWS V14.01,2013-03-16 11:43:00,
2013-03-16 07:44:00,55.3,33.8,29.80,South,180,4.9,4.9,44,0.00,,---,0.00,VWS V14.01,2013-03-16 11:44:00,
2013-03-16 07:47:00,55.3,33.8,29.80,SSE,158,0.0,0.0,44,0.00,,---,0.00,VWS V14.01,2013-03-16 11:47:00,
2013-03-16 07:49:00,55.3,33.8,29.80,SSE,158,0.0,0.0,44,0.00,,---,0.00,VWS V14.01,2013-03-16 11:49:00,
2013-03-16 07:50:00,55.3,33.8,29.79,SSE,158,0.0,0.0,44,0.00,,---,0.00,VWS V14.01,2013-03-16 11:50:00,
2013-03-16 07:52:00,55.2,33.7,29.80,South,180,2.9,2.9,44,0.00,,---,0.00,VWS V14.01,2013-03-16 11:52:00,
2013-03-16 07:53:00,55.2,33.7,29.80,South,180,2.9,2.9,44,0.00,,---,0.00,VWS V14.01,2013-03-16 11:53:00,
2013-03-16 07:55:00,55.2,33.7,29.80,South,180,0.0,0.0,44,0.00,,---,0.00,VWS V14.01,2013-03-16 11:55:00,
2013-03-16 07:58:00,55.2,33.7,29.80,South,180,5.1,5.1,44,0.00,,---,0.00,VWS V14.01,2013-03-16 11:58:00,
2013-03-16 08:00:00,55.0,33.5,29.80,SSW,202,6.2,6.2,44,0.00,,---,0.00,VWS V14.01,2013-03-16 12:00:00,
2013-03-16 08:03:00,55.2,34.2,29.80,SSE,158,0.0,0.0,45,0.00,,---,0.00,VWS V14.01,2013-03-16 12:03:00,
2013-03-16 08:05:00,55.2,34.2,29.80,SSE,158,4.4,4.4,45,0.00,,---,0.00,VWS V14.01,2013-03-16 12:05:00,
2013-03-16 08:08:00,55.2,33.7,29.80,SSW,202,4.4,4.4,44,0.00,,---,0.00,VWS V14.01,2013-03-16 12:08:00,
2013-03-16 08:10:00,55.3,34.3,29.80,SSW,202,6.0,6.0,45,0.00,,---,0.00,VWS V14.01,2013-03-16 12:10:00,
2013-03-16 08:13:00,55.3,34.3,29.80,South,180,2.4,2.4,45,0.00,,---,0.00,VWS V14.01,2013-03-16 12:13:00,
2013-03-16 08:14:00,55.3,34.3,29.80,South,180,2.4,2.4,45,0.00,,---,0.00,VWS V14.01,2013-03-16 12:14:00,
2013-03-16 08:15:00,55.3,34.3,29.80,South,180,2.4,2.4,45,0.00,,---,0.00,VWS V14.01,2013-03-16 12:15:00,
2013-03-16 08:18:00,55.3,34.3,29.80,South,180,6.2,6.2,45,0.00,,---,0.00,VWS V14.01,2013-03-16 12:18:00,
2013-03-16 08:19:00,55.3,34.3,29.80,South,180,6.2,6.2,45,0.00,,---,0.00,VWS V14.01,2013-03-16 12:19:00,
2013-03-16 08:20:00,55.3,34.3,29.80,SSW,202,0.0,6.2,45,0.00,,---,0.00,VWS V14.01,2013-03-16 12:20:00,
2013-03-16 08:23:00,55.3,34.3,29.80,South,180,0.0,0.0,45,0.00,,---,0.00,VWS V14.01,2013-03-16 12:23:00,
2013-03-16 08:24:00,55.3,34.3,29.80,South,180,0.0,0.0,45,0.00,,---,0.00,VWS V14.01,2013-03-16 12:24:00,
2013-03-16 08:25:00,55.3,34.3,29.80,South,180,0.0,0.0,45,0.00,,---,0.00,VWS V14.01,2013-03-16 12:25:00,
2013-03-16 08:26:00,55.3,34.3,29.80,South,180,0.0,0.0,45,0.00,,---,0.00,VWS V14.01,2013-03-16 12:26:00,
2013-03-16 08:29:00,55.3,34.3,29.80,SSE,158,0.0,0.0,45,0.00,,---,0.00,VWS V14.01,2013-03-16 12:29:00,
2013-03-16 08:30:00,55.5,34.5,29.80,SSW,202,4.6,4.6,45,0.00,,---,0.00,VWS V14.01,2013-03-16 12:30:00,
2013-03-16 08:31:00,55.5,34.5,29.80,SSW,202,4.6,4.6,45,0.00,,---,0.00,VWS V14.01,2013-03-16 12:31:00,
2013-03-16 08:34:00,55.5,34.5,29.79,SSW,202,9.8,9.8,45,0.00,,---,0.00,VWS V14.01,2013-03-16 12:34:00,
2013-03-16 08:35:00,55.5,34.5,29.80,SSW,202,9.8,9.8,45,0.00,,---,0.00,VWS V14.01,2013-03-16 12:35:00,
2013-03-16 08:36:00,55.9,34.9,29.80,South,180,8.7,8.7,45,0.00,,---,0.00,VWS V14.01,2013-03-16 12:36:00,
2013-03-16 08:39:00,55.9,34.9,29.80,South,180,6.4,6.4,45,0.00,,---,0.00,VWS V14.01,2013-03-16 12:39:00,
2013-03-16 08:40:00,55.9,34.9,29.80,SW,225,5.1,5.1,45,0.00,,---,0.00,VWS V14.01,2013-03-16 12:40:00,
2013-03-16 08:41:00,55.9,34.9,29.80,SW,225,5.1,5.1,45,0.00,,---,0.00,VWS V14.01,2013-03-16 12:41:00,
2013-03-16 08:42:00,56.1,35.1,29.80,SSE,158,8.2,8.2,45,0.00,,---,0.00,VWS V14.01,2013-03-16 12:42:00,
2013-03-16 08:44:00,56.1,35.1,29.80,SSE,158,8.2,8.2,45,0.00,,---,0.00,VWS V14.01,2013-03-16 12:44:00,
2013-03-16 08:45:00,56.4,34.2,29.80,South,180,11.8,11.8,43,0.00,,---,0.00,VWS V14.01,2013-03-16 12:45:00,
2013-03-16 08:49:00,56.4,34.2,29.80,SSE,158,6.0,6.0,43,0.00,,---,0.00,VWS V14.01,2013-03-16 12:49:00,
2013-03-16 08:50:00,56.4,34.2,29.80,SSE,158,6.0,6.0,43,0.00,,---,0.00,VWS V14.01,2013-03-16 12:50:00,
2013-03-16 08:52:00,56.6,34.4,29.80,SW,225,3.1,6.0,43,0.00,,---,0.00,VWS V14.01,2013-03-16 12:52:00,
2013-03-16 08:54:00,56.6,34.4,29.80,SSE,158,4.9,4.9,43,0.00,,---,0.00,VWS V14.01,2013-03-16 12:54:00,
2013-03-16 08:55:00,56.6,34.4,29.80,SSE,158,4.9,4.9,43,0.00,,---,0.00,VWS V14.01,2013-03-16 12:55:00,
2013-03-16 08:57:00,56.8,34.6,29.80,WNW,292,4.0,4.0,43,0.00,,---,0.00,VWS V14.01,2013-03-16 12:57:00,
2013-03-16 08:59:00,56.8,34.6,29.80,WSW,248,0.0,4.0,43,0.00,,---,0.00,VWS V14.01,2013-03-16 12:59:00,
2013-03-16 09:00:00,56.8,34.6,29.80,WSW,248,0.0,4.0,43,0.00,,---,0.00,VWS V14.01,2013-03-16 13:00:00,
2013-03-16 09:02:00,57.1,34.8,29.80,SSW,202,13.6,13.6,43,0.00,,---,0.00,VWS V14.01,2013-03-16 13:02:00,
2013-03-16 09:05:00,57.1,34.2,29.80,SSW,202,5.8,5.8,42,0.00,,---,0.00,VWS V14.01,2013-03-16 13:05:00,
2013-03-16 09:07:00,57.3,34.4,29.81,SW,225,7.6,7.6,42,0.00,,---,0.00,VWS V14.01,2013-03-16 13:07:00,
2013-03-16 09:08:00,57.5,34.6,29.81,SSE,158,5.1,5.1,42,0.00,,---,0.00,VWS V14.01,2013-03-16 13:08:00,
2013-03-16 09:10:00,57.5,34.6,29.81,South,180,4.6,4.6,42,0.00,,---,0.00,VWS V14.01,2013-03-16 13:10:00,
2013-03-16 09:13:00,57.7,34.8,29.81,South,180,0.0,0.0,42,0.00,,---,0.00,VWS V14.01,2013-03-16 13:13:00,
2013-03-16 09:15:00,57.9,35.0,29.81,SSW,202,2.6,2.6,42,0.00,,---,0.00,VWS V14.01,2013-03-16 13:15:00,
2013-03-16 09:18:00,57.7,34.2,29.81,SSW,202,9.6,9.6,41,0.00,,---,0.00,VWS V14.01,2013-03-16 13:18:00,
2013-03-16 09:19:00,57.7,34.2,29.81,SSW,202,9.6,9.6,41,0.00,,---,0.00,VWS V14.01,2013-03-16 13:19:00,
2013-03-16 09:21:00,57.9,35.0,29.81,SSE,158,0.0,0.0,42,0.00,,---,0.00,VWS V14.01,2013-03-16 13:21:00,
2013-03-16 09:23:00,57.9,34.4,29.81,SSW,202,4.6,4.6,41,0.00,,---,0.00,VWS V14.01,2013-03-16 13:23:00,
2013-03-16 09:24:00,57.9,34.4,29.81,South,180,4.2,4.6,41,0.00,,---,0.00,VWS V14.01,2013-03-16 13:24:00,
2013-03-16 09:26:00,58.2,34.6,29.81,SSW,202,6.9,6.9,41,0.00,,---,0.00,VWS V14.01,2013-03-16 13:26:00,
2013-03-16 09:27:00,58.2,34.6,29.81,SSW,202,6.9,6.9,41,0.00,,---,0.00,VWS V14.01,2013-03-16 13:27:00,
2013-03-16 09:28:00,58.2,34.6,29.81,South,180,10.9,10.9,41,0.00,,---,0.00,VWS V14.01,2013-03-16 13:28:00,
2013-03-16 09:29:00,58.2,34.6,29.81,South,180,10.9,10.9,41,0.00,,---,0.00,VWS V14.01,2013-03-16 13:29:00,
2013-03-16 09:31:00,58.2,34.6,29.81,South,180,12.9,12.9,41,0.00,,---,0.00,VWS V14.01,2013-03-16 13:31:00,
2013-03-16 09:32:00,58.2,34.6,29.81,South,180,12.9,12.9,41,0.00,,---,0.00,VWS V14.01,2013-03-16 13:32:00,
2013-03-16 09:34:00,58.4,34.8,29.81,South,180,12.9,12.9,41,0.00,,---,0.00,VWS V14.01,2013-03-16 13:34:00,
2013-03-16 09:37:00,58.4,34.2,29.81,SSW,202,3.5,3.5,40,0.00,,---,0.00,VWS V14.01,2013-03-16 13:37:00,
2013-03-16 09:39:00,58.6,34.4,29.81,WNW,292,5.8,5.8,40,0.00,,---,0.00,VWS V14.01,2013-03-16 13:39:00,
2013-03-16 09:42:00,58.8,34.5,29.81,SSW,202,5.5,5.5,40,0.00,,---,0.00,VWS V14.01,2013-03-16 13:42:00,
2013-03-16 09:44:00,58.9,34.6,29.81,SSW,202,0.0,7.8,40,0.00,,---,0.00,VWS V14.01,2013-03-16 13:44:00,
2013-03-16 09:47:00,58.9,34.6,29.80,SSW,202,13.1,13.1,40,0.00,,---,0.00,VWS V14.01,2013-03-16 13:47:00,
2013-03-16 09:49:00,59.1,34.8,29.81,South,180,6.2,6.2,40,0.00,,---,0.00,VWS V14.01,2013-03-16 13:49:00,
2013-03-16 09:50:00,59.1,34.8,29.81,South,180,6.2,6.2,40,0.00,,---,0.00,VWS V14.01,2013-03-16 13:50:00,
2013-03-16 09:52:00,59.3,35.0,29.80,SSE,158,5.3,5.3,40,0.00,,---,0.00,VWS V14.01,2013-03-16 13:52:00,
2013-03-16 09:54:00,59.1,34.8,29.80,SSW,202,14.9,14.9,40,0.00,,---,0.00,VWS V14.01,2013-03-16 13:54:00,
2013-03-16 09:55:00,59.5,35.2,29.80,SSE,158,0.0,14.9,40,0.00,,---,0.00,VWS V14.01,2013-03-16 13:55:00,
2013-03-16 09:57:00,59.5,35.2,29.81,West,270,0.0,0.0,40,0.00,,---,0.00,VWS V14.01,2013-03-16 13:57:00,
2013-03-16 09:58:00,59.5,35.2,29.81,West,270,0.0,0.0,40,0.00,,---,0.00,VWS V14.01,2013-03-16 13:58:00,
2013-03-16 10:00:00,59.7,35.4,29.81,South,180,4.9,4.9,40,0.00,,---,0.00,VWS V14.01,2013-03-16 14:00:00,
2013-03-16 10:02:00,59.7,35.4,29.81,SSE,158,5.3,5.3,40,0.00,,---,0.00,VWS V14.01,2013-03-16 14:02:00,
2013-03-16 10:03:00,59.7,35.4,29.81,SSE,158,5.3,5.3,40,0.00,,---,0.00,VWS V14.01,2013-03-16 14:03:00,
2013-03-16 10:05:00,59.7,35.4,29.80,South,180,8.0,8.0,40,0.00,,---,0.00,VWS V14.01,2013-03-16 14:05:00,
2013-03-16 10:06:00,59.7,35.4,29.80,South,180,8.0,8.0,40,0.00,,---,0.00,VWS V14.01,2013-03-16 14:06:00,
2013-03-16 10:07:00,59.7,35.4,29.80,SSW,202,16.7,16.7,40,0.00,,---,0.00,VWS V14.01,2013-03-16 14:07:00,
2013-03-16 10:08:00,59.7,34.7,29.80,South,180,3.1,16.7,39,0.00,,---,0.00,VWS V14.01,2013-03-16 14:08:00,
2013-03-16 10:11:00,59.7,34.7,29.81,South,180,3.1,3.1,39,0.00,,---,0.00,VWS V14.01,2013-03-16 14:11:00,
2013-03-16 10:12:00,59.7,34.7,29.81,South,180,3.1,3.1,39,0.00,,---,0.00,VWS V14.01,2013-03-16 14:12:00,
2013-03-16 10:13:00,59.7,34.7,29.81,South,180,3.1,3.1,39,0.00,,---,0.00,VWS V14.01,2013-03-16 14:13:00,
2013-03-16 10:16:00,60.0,35.6,29.80,SW,225,14.3,14.3,40,0.00,,---,0.00,VWS V14.01,2013-03-16 14:16:00,
2013-03-16 10:17:00,60.0,35.6,29.81,SW,225,14.3,14.3,40,0.00,,---,0.00,VWS V14.01,2013-03-16 14:17:00,
2013-03-16 10:18:00,60.0,35.6,29.81,SW,225,14.3,14.3,40,0.00,,---,0.00,VWS V14.01,2013-03-16 14:18:00,
2013-03-16 10:21:00,60.2,35.2,29.80,SSW,202,4.9,14.3,39,0.00,,---,0.00,VWS V14.01,2013-03-16 14:21:00,
2013-03-16 10:22:00,60.2,35.2,29.80,SSW,202,4.9,4.9,39,0.00,,---,0.00,VWS V14.01,2013-03-16 14:22:00,
2013-03-16 10:23:00,60.2,35.2,29.80,SSW,202,4.9,4.9,39,0.00,,---,0.00,VWS V14.01,2013-03-16 14:23:00,
2013-03-16 10:27:00,60.7,36.3,29.80,South,180,17.8,17.8,40,0.00,,---,0.00,VWS V14.01,2013-03-16 14:27:00,
2013-03-16 10:28:00,60.7,36.3,29.80,South,180,17.8,17.8,40,0.00,,---,0.00,VWS V14.01,2013-03-16 14:28:00,
2013-03-16 10:30:00,60.9,36.4,29.80,WSW,248,0.0,0.0,40,0.00,,---,0.00,VWS V14.01,2013-03-16 14:30:00,
2013-03-16 10:33:00,60.9,36.4,29.80,WSW,248,0.0,0.0,40,0.00,,---,0.00,VWS V14.01,2013-03-16 14:33:00,
2013-03-16 10:37:00,61.1,18.5,29.79,West,270,7.6,7.6,19,0.00,,---,0.00,VWS V14.01,2013-03-16 14:37:00,
2013-03-16 10:38:00,60.9,35.8,29.80,SSW,202,2.9,7.6,39,0.00,,---,0.00,VWS V14.01,2013-03-16 14:38:00,
2013-03-16 10:42:00,61.3,36.8,29.80,SSE,158,13.4,13.4,40,0.00,,---,0.00,VWS V14.01,2013-03-16 14:42:00,
2013-03-16 10:43:00,61.3,36.8,29.80,SSE,158,13.4,13.4,40,0.00,,---,0.00,VWS V14.01,2013-03-16 14:43:00,
2013-03-16 10:44:00,61.3,36.2,29.80,SSW,202,10.9,13.4,39,0.00,,---,0.00,VWS V14.01,2013-03-16 14:44:00,
2013-03-16 10:47:00,61.5,37.0,29.80,West,270,6.7,6.7,40,0.00,,---,0.00,VWS V14.01,2013-03-16 14:47:00,
2013-03-16 10:48:00,61.5,37.0,29.80,SW,225,4.6,4.6,40,0.00,,---,0.00,VWS V14.01,2013-03-16 14:48:00,
2013-03-16 10:49:00,61.6,35.8,29.79,SW,225,4.6,4.6,38,0.00,,---,0.00,VWS V14.01,2013-03-16 14:49:00,
2013-03-16 10:50:00,61.6,35.8,29.79,SW,225,4.6,4.6,38,0.00,,---,0.00,VWS V14.01,2013-03-16 14:50:00,
2013-03-16 10:53:00,61.8,36.6,29.79,South,180,12.7,14.0,39,0.00,,---,0.00,VWS V14.01,2013-03-16 14:53:00,
2013-03-16 10:54:00,61.8,36.6,29.79,South,180,12.7,14.0,39,0.00,,---,0.00,VWS V14.01,2013-03-16 14:54:00,
2013-03-16 10:55:00,62.0,36.8,29.79,SSE,158,9.1,12.7,39,0.00,,---,0.00,VWS V14.01,2013-03-16 14:55:00,
2013-03-16 10:58:00,62.0,36.1,29.79,South,180,11.1,11.1,38,0.00,,---,0.00,VWS V14.01,2013-03-16 14:58:00,
2013-03-16 10:59:00,62.4,36.5,29.79,SSW,202,10.0,11.1,38,0.00,,---,0.00,VWS V14.01,2013-03-16 14:59:00,
2013-03-16 11:00:00,62.4,36.5,29.80,SSW,202,10.0,11.1,38,0.00,,---,0.00,VWS V14.01,2013-03-16 15:00:00,
2013-03-16 11:03:00,62.5,36.6,29.80,South,180,10.2,14.5,38,0.00,,---,0.00,VWS V14.01,2013-03-16 15:03:00,
2013-03-16 11:04:00,62.5,36.6,29.80,South,180,10.2,10.2,38,0.00,,---,0.00,VWS V14.01,2013-03-16 15:04:00,
2013-03-16 11:05:00,62.5,36.6,29.79,South,180,10.2,10.2,38,0.00,,---,0.00,VWS V14.01,2013-03-16 15:05:00,
2013-03-16 11:06:00,62.5,36.6,29.79,South,180,10.2,10.2,38,0.00,,---,0.00,VWS V14.01,2013-03-16 15:06:00,
2013-03-16 11:08:00,62.7,36.8,29.80,SW,225,4.6,4.6,38,0.00,,---,0.00,VWS V14.01,2013-03-16 15:08:00,
2013-03-16 11:09:00,62.7,36.8,29.80,SW,225,4.6,4.6,38,0.00,,---,0.00,VWS V14.01,2013-03-16 15:09:00,
2013-03-16 11:11:00,63.1,37.8,29.79,SSW,202,4.6,4.6,39,0.00,,---,0.00,VWS V14.01,2013-03-16 15:11:00,
2013-03-16 11:12:00,63.1,37.8,29.79,SSW,202,4.6,4.6,39,0.00,,---,0.00,VWS V14.01,2013-03-16 15:12:00,
2013-03-16 11:14:00,63.3,38.0,29.80,South,180,15.2,15.2,39,0.00,,---,0.00,VWS V14.01,2013-03-16 15:14:00,
2013-03-16 11:15:00,63.3,38.0,29.80,South,180,15.2,15.2,39,0.00,,---,0.00,VWS V14.01,2013-03-16 15:15:00,
2013-03-16 11:16:00,63.4,38.0,29.80,South,180,5.3,5.3,39,0.00,,---,0.00,VWS V14.01,2013-03-16 15:16:00,
2013-03-16 11:17:00,63.4,38.0,29.80,South,180,5.3,5.3,39,0.00,,---,0.00,VWS V14.01,2013-03-16 15:17:00,
2013-03-16 11:20:00,63.6,37.5,29.80,SSW,202,5.5,5.5,38,0.00,,---,0.00,VWS V14.01,2013-03-16 15:20:00,
2013-03-16 11:22:00,63.8,38.4,29.79,WNW,292,6.7,6.7,39,0.00,,---,0.00,VWS V14.01,2013-03-16 15:22:00,
2013-03-16 11:23:00,63.8,38.4,29.79,WSW,248,0.0,6.7,39,0.00,,---,0.00,VWS V14.01,2013-03-16 15:23:00,
2013-03-16 11:25:00,63.8,37.7,29.79,SSW,202,6.0,6.0,38,0.00,,---,0.00,VWS V14.01,2013-03-16 15:25:00,
2013-03-16 11:28:00,63.8,37.7,29.79,South,180,9.1,9.1,38,0.00,,---,0.00,VWS V14.01,2013-03-16 15:28:00,
2013-03-16 11:29:00,63.8,37.7,29.79,South,180,9.1,9.1,38,0.00,,---,0.00,VWS V14.01,2013-03-16 15:29:00,
2013-03-16 11:30:00,64.0,37.9,29.79,SSW,202,11.4,11.4,38,0.00,,---,0.00,VWS V14.01,2013-03-16 15:30:00,
2013-03-16 11:33:00,64.0,37.9,29.79,WSW,248,7.8,7.8,38,0.00,,---,0.00,VWS V14.01,2013-03-16 15:33:00,
2013-03-16 11:34:00,64.0,37.9,29.79,SSW,202,13.6,13.6,38,0.00,,---,0.00,VWS V14.01,2013-03-16 15:34:00,
2013-03-16 11:35:00,63.8,37.7,29.79,South,180,9.6,13.6,38,0.00,,---,0.00,VWS V14.01,2013-03-16 15:35:00,
2013-03-16 11:38:00,64.3,38.2,29.79,SW,225,7.8,7.8,38,0.00,,---,0.00,VWS V14.01,2013-03-16 15:38:00,
2013-03-16 11:39:00,64.3,38.2,29.79,SW,225,7.8,7.8,38,0.00,,---,0.00,VWS V14.01,2013-03-16 15:39:00,
2013-03-16 11:40:00,64.3,38.2,29.79,South,180,9.1,9.1,38,0.00,,---,0.00,VWS V14.01,2013-03-16 15:40:00,
2013-03-16 11:41:00,64.3,38.2,29.79,South,180,9.1,9.1,38,0.00,,---,0.00,VWS V14.01,2013-03-16 15:41:00,
2013-03-16 11:44:00,64.5,38.3,29.79,South,180,13.6,13.6,38,0.00,,---,0.00,VWS V14.01,2013-03-16 15:44:00,
2013-03-16 11:45:00,64.5,38.3,29.79,South,180,13.6,13.6,38,0.00,,---,0.00,VWS V14.01,2013-03-16 15:45:00,
2013-03-16 11:46:00,65.1,38.9,29.78,SSW,202,3.3,13.6,38,0.00,,---,0.00,VWS V14.01,2013-03-16 15:46:00,
2013-03-16 11:49:00,65.2,39.0,29.78,South,180,12.0,12.0,38,0.00,,---,0.00,VWS V14.01,2013-03-16 15:49:00,
2013-03-16 11:50:00,65.4,38.5,29.78,SSE,158,8.7,8.7,37,0.00,,---,0.00,VWS V14.01,2013-03-16 15:50:00,
2013-03-16 11:51:00,65.4,38.5,29.78,SSE,158,8.7,8.7,37,0.00,,---,0.00,VWS V14.01,2013-03-16 15:51:00,
2013-03-16 11:52:00,65.4,38.5,29.78,SSE,158,8.7,8.7,37,0.00,,---,0.00,VWS V14.01,2013-03-16 15:52:00,
2013-03-16 11:55:00,65.8,38.8,29.78,SSW,202,11.6,11.6,37,0.00,,---,0.00,VWS V14.01,2013-03-16 15:55:00,
2013-03-16 11:57:00,65.4,38.5,29.78,SSW,202,7.6,7.6,37,0.00,,---,0.00,VWS V14.01,2013-03-16 15:57:00,
2013-03-16 11:58:00,65.4,37.8,29.79,SSW,202,10.0,10.0,36,0.00,,---,0.00,VWS V14.01,2013-03-16 15:58:00,
2013-03-16 12:00:00,65.4,37.8,29.78,SSW,202,11.4,11.4,36,0.00,,---,0.00,VWS V14.01,2013-03-16 16:00:00,
2013-03-16 12:02:00,65.6,38.0,29.78,SSE,158,7.8,7.8,36,0.00,,---,0.00,VWS V14.01,2013-03-16 16:02:00,
2013-03-16 12:03:00,65.6,38.0,29.78,South,180,10.0,10.0,36,0.00,,---,0.00,VWS V14.01,2013-03-16 16:03:00,
2013-03-16 12:05:00,65.6,38.0,29.78,South,180,10.0,10.0,36,0.00,,---,0.00,VWS V14.01,2013-03-16 16:05:00,
2013-03-16 12:06:00,65.6,38.0,29.78,SSW,202,7.6,10.0,36,0.00,,---,0.00,VWS V14.01,2013-03-16 16:06:00,
2013-03-16 12:08:00,65.8,38.1,29.78,South,180,16.7,16.7,36,0.00,,---,0.00,VWS V14.01,2013-03-16 16:08:00,
2013-03-16 12:10:00,65.8,38.1,29.78,South,180,16.7,16.7,36,0.00,,---,0.00,VWS V14.01,2013-03-16 16:10:00,
2013-03-16 12:11:00,65.8,38.1,29.78,South,180,16.7,16.7,36,0.00,,---,0.00,VWS V14.01,2013-03-16 16:11:00,
2013-03-16 12:13:00,66.0,38.3,29.78,SW,225,12.5,12.5,36,0.00,,---,0.00,VWS V14.01,2013-03-16 16:13:00,
2013-03-16 12:14:00,65.8,38.1,29.78,SSE,158,6.2,12.5,36,0.00,,---,0.00,VWS V14.01,2013-03-16 16:14:00,
2013-03-16 12:15:00,65.8,38.1,29.78,SSE,158,6.2,6.2,36,0.00,,---,0.00,VWS V14.01,2013-03-16 16:15:00,
2013-03-16 12:17:00,65.8,38.1,29.78,SSW,202,6.2,6.2,36,0.00,,---,0.00,VWS V14.01,2013-03-16 16:17:00,
2013-03-16 12:18:00,65.8,38.1,29.78,SSW,202,6.2,6.2,36,0.00,,---,0.00,VWS V14.01,2013-03-16 16:18:00,
2013-03-16 12:19:00,66.1,39.1,29.78,South,180,9.8,9.8,37,0.00,,---,0.00,VWS V14.01,2013-03-16 16:19:00,
2013-03-16 12:20:00,66.1,39.1,29.78,South,180,9.8,9.8,37,0.00,,---,0.00,VWS V14.01,2013-03-16 16:20:00,
2013-03-16 12:22:00,66.1,38.4,29.78,SSW,202,14.5,14.5,36,0.00,,---,0.00,VWS V14.01,2013-03-16 16:22:00,
2013-03-16 12:23:00,66.1,38.4,29.78,SSE,158,14.9,14.9,36,0.00,,---,0.00,VWS V14.01,2013-03-16 16:23:00,
2013-03-16 12:24:00,66.1,38.4,29.78,SSE,158,14.9,14.9,36,0.00,,---,0.00,VWS V14.01,2013-03-16 16:24:00,
2013-03-16 12:25:00,66.3,38.6,29.78,SSW,202,12.9,12.9,36,0.00,,---,0.00,VWS V14.01,2013-03-16 16:25:00,
2013-03-16 12:27:00,66.7,38.9,29.78,South,180,7.8,7.8,36,0.00,,---,0.00,VWS V14.01,2013-03-16 16:27:00,
2013-03-16 12:28:00,66.7,38.9,29.78,South,180,6.2,7.8,36,0.00,,---,0.00,VWS V14.01,2013-03-16 16:28:00,
2013-03-16 12:29:00,66.7,38.9,29.78,South,180,6.2,6.2,36,0.00,,---,0.00,VWS V14.01,2013-03-16 16:29:00,
2013-03-16 12:30:00,66.7,38.9,29.78,South,180,6.2,6.2,36,0.00,,---,0.00,VWS V14.01,2013-03-16 16:30:00,
2013-03-16 12:32:00,66.9,39.1,29.78,South,180,9.8,9.8,36,0.00,,---,0.00,VWS V14.01,2013-03-16 16:32:00,
2013-03-16 12:33:00,66.9,38.4,29.78,South,180,13.6,13.6,35,0.00,,---,0.00,VWS V14.01,2013-03-16 16:33:00,
2013-03-16 12:34:00,66.9,38.4,29.78,South,180,13.6,13.6,35,0.00,,---,0.00,VWS V14.01,2013-03-16 16:34:00,
2013-03-16 12:35:00,66.9,38.4,29.78,South,180,13.6,13.6,35,0.00,,---,0.00,VWS V14.01,2013-03-16 16:35:00,
2013-03-16 12:37:00,67.2,38.7,29.78,South,180,14.0,14.0,35,0.00,,---,0.00,VWS V14.01,2013-03-16 16:37:00,
2013-03-16 12:39:00,67.2,38.7,29.78,South,180,14.0,14.0,35,0.00,,---,0.00,VWS V14.01,2013-03-16 16:39:00,
2013-03-16 12:40:00,67.2,38.7,29.78,South,180,7.3,14.0,35,0.00,,---,0.00,VWS V14.01,2013-03-16 16:40:00,
2013-03-16 12:42:00,67.2,37.9,29.78,South,180,10.0,10.0,34,0.00,,---,0.00,VWS V14.01,2013-03-16 16:42:00,
2013-03-16 12:44:00,67.4,38.1,29.77,South,180,6.4,10.0,34,0.00,,---,0.00,VWS V14.01,2013-03-16 16:44:00,
2013-03-16 12:45:00,67.4,38.1,29.77,South,180,6.4,6.4,34,0.00,,---,0.00,VWS V14.01,2013-03-16 16:45:00,
2013-03-16 12:47:00,67.4,38.1,29.78,SSW,202,15.8,15.8,34,0.00,,---,0.00,VWS V14.01,2013-03-16 16:47:00,
2013-03-16 12:49:00,67.4,38.1,29.78,SSW,202,15.8,15.8,34,0.00,,---,0.00,VWS V14.01,2013-03-16 16:49:00,
2013-03-16 12:50:00,67.4,38.1,29.78,SSW,202,15.8,15.8,34,0.00,,---,0.00,VWS V14.01,2013-03-16 16:50:00,
2013-03-16 12:51:00,67.4,38.1,29.78,South,180,9.8,9.8,34,0.00,,---,0.00,VWS V14.01,2013-03-16 16:51:00,
2013-03-16 12:52:00,67.4,38.1,29.77,South,180,10.5,10.5,34,0.00,,---,0.00,VWS V14.01,2013-03-16 16:52:00,
2013-03-16 12:54:00,67.4,38.1,29.77,South,180,10.5,10.5,34,0.00,,---,0.00,VWS V14.01,2013-03-16 16:54:00,
2013-03-16 12:56:00,67.4,38.1,29.78,South,180,10.5,10.5,34,0.00,,---,0.00,VWS V14.01,2013-03-16 16:56:00,
2013-03-16 12:57:00,67.8,38.4,29.77,South,180,10.5,10.5,34,0.00,,---,0.00,VWS V14.01,2013-03-16 16:57:00,
2013-03-16 12:59:00,67.9,39.3,29.78,South,180,13.8,13.8,35,0.00,,---,0.00,VWS V14.01,2013-03-16 16:59:00,
2013-03-16 13:01:00,67.9,38.5,29.78,South,180,2.4,2.4,34,0.00,,---,0.00,VWS V14.01,2013-03-16 17:01:00,
2013-03-16 13:03:00,68.1,38.7,29.78,South,180,2.4,2.4,34,0.00,,---,0.00,VWS V14.01,2013-03-16 17:03:00,
2013-03-16 13:04:00,68.1,38.7,29.78,SW,225,13.8,13.8,34,0.00,,---,0.00,VWS V14.01,2013-03-16 17:04:00,
2013-03-16 13:06:00,67.9,38.5,29.77,South,180,14.7,14.7,34,0.00,,---,0.00,VWS V14.01,2013-03-16 17:06:00,
2013-03-16 13:08:00,67.8,38.4,29.77,SSE,158,10.0,14.7,34,0.00,,---,0.00,VWS V14.01,2013-03-16 17:08:00,
2013-03-16 13:10:00,67.9,38.5,29.77,SSE,158,10.0,10.0,34,0.00,,---,0.00,VWS V14.01,2013-03-16 17:10:00,
2013-03-16 13:12:00,67.6,38.3,29.77,SW,225,8.5,9.6,34,0.00,,---,0.00,VWS V14.01,2013-03-16 17:12:00,
2013-03-16 13:13:00,67.6,38.3,29.77,SW,225,8.5,8.5,34,0.00,,---,0.00,VWS V14.01,2013-03-16 17:13:00,
2013-03-16 13:15:00,67.4,37.3,29.77,SSW,202,12.0,12.0,33,0.00,,---,0.00,VWS V14.01,2013-03-16 17:15:00,
2013-03-16 13:17:00,67.2,37.9,29.77,SW,225,8.5,8.5,34,0.00,,---,0.00,VWS V14.01,2013-03-16 17:17:00,
2013-03-16 13:18:00,67.6,38.3,29.77,SE,135,9.1,9.1,34,0.00,,---,0.00,VWS V14.01,2013-03-16 17:18:00,
2013-03-16 13:21:00,67.4,38.1,29.77,South,180,4.2,4.2,34,0.00,,---,0.00,VWS V14.01,2013-03-16 17:21:00,
2013-03-16 13:22:00,67.4,38.1,29.77,SW,225,12.7,12.7,34,0.00,,---,0.00,VWS V14.01,2013-03-16 17:22:00,
2013-03-16 13:23:00,67.4,38.1,29.77,SW,225,12.7,12.7,34,0.00,,---,0.00,VWS V14.01,2013-03-16 17:23:00,
2013-03-16 13:26:00,67.6,38.3,29.77,South,180,13.4,13.4,34,0.00,,---,0.00,VWS V14.01,2013-03-16 17:26:00,
2013-03-16 13:28:00,67.4,38.1,29.77,SSE,158,7.3,7.3,34,0.00,,---,0.00,VWS V14.01,2013-03-16 17:28:00,
2013-03-16 13:29:00,67.4,38.1,29.77,SSW,202,8.2,8.2,34,0.00,,---,0.00,VWS V14.01,2013-03-16 17:29:00,
2013-03-16 13:31:00,67.8,38.4,29.77,South,180,10.2,10.2,34,0.00,,---,0.00,VWS V14.01,2013-03-16 17:31:00,
2013-03-16 13:33:00,67.9,38.5,29.76,South,180,4.2,4.2,34,0.00,,---,0.00,VWS V14.01,2013-03-16 17:33:00,
2013-03-16 13:34:00,67.9,38.5,29.76,South,180,4.2,4.2,34,0.00,,---,0.00,VWS V14.01,2013-03-16 17:34:00,
2013-03-16 13:36:00,67.9,38.5,29.77,SSE,158,16.1,16.1,34,0.00,,---,0.00,VWS V14.01,2013-03-16 17:36:00,
2013-03-16 13:38:00,67.9,38.5,29.77,West,270,8.9,16.1,34,0.00,,---,0.00,VWS V14.01,2013-03-16 17:38:00,
2013-03-16 13:39:00,67.9,38.5,29.77,West,270,8.9,8.9,34,0.00,,---,0.00,VWS V14.01,2013-03-16 17:39:00,
2013-03-16 13:40:00,67.9,37.8,29.76,West,270,8.9,8.9,33,0.00,,---,0.00,VWS V14.01,2013-03-16 17:40:00,
2013-03-16 13:41:00,67.9,37.8,29.76,West,270,8.9,8.9,33,0.00,,---,0.00,VWS V14.01,2013-03-16 17:41:00,
2013-03-16 13:43:00,67.9,37.8,29.76,SW,225,10.0,10.0,33,0.00,,---,0.00,VWS V14.01,2013-03-16 17:43:00,
2013-03-16 13:45:00,68.1,38.7,29.76,SSW,202,6.9,6.9,34,0.00,,---,0.00,VWS V14.01,2013-03-16 17:45:00,
2013-03-16 13:46:00,68.1,38.7,29.76,SSW,202,5.8,5.8,34,0.00,,---,0.00,VWS V14.01,2013-03-16 17:46:00,
2013-03-16 13:48:00,68.3,38.1,29.76,South,180,3.1,5.8,33,0.00,,---,0.00,VWS V14.01,2013-03-16 17:48:00,
2013-03-16 13:50:00,68.1,37.9,29.76,South,180,8.9,8.9,33,0.00,,---,0.00,VWS V14.01,2013-03-16 17:50:00,
2013-03-16 13:52:00,68.5,38.3,29.76,SSE,158,8.2,8.9,33,0.00,,---,0.00,VWS V14.01,2013-03-16 17:52:00,
2013-03-16 13:53:00,68.5,38.3,29.76,SSE,158,8.2,8.2,33,0.00,,---,0.00,VWS V14.01,2013-03-16 17:53:00,
2013-03-16 13:55:00,68.3,38.9,29.76,South,180,9.1,9.1,34,0.00,,---,0.00,VWS V14.01,2013-03-16 17:55:00,
2013-03-16 13:57:00,68.7,39.2,29.76,South,180,7.6,7.6,34,0.00,,---,0.00,VWS V14.01,2013-03-16 17:57:00,
2013-03-16 13:58:00,68.7,37.7,29.76,SW,225,11.8,11.8,32,0.00,,---,0.00,VWS V14.01,2013-03-16 17:58:00,
2013-03-16 14:00:00,69.0,37.9,29.76,South,180,16.3,16.3,32,0.00,,---,0.00,VWS V14.01,2013-03-16 18:00:00,
2013-03-16 14:02:00,69.4,38.3,29.76,SSW,202,10.2,10.2,32,0.00,,---,0.00,VWS V14.01,2013-03-16 18:02:00,
2013-03-16 14:03:00,69.4,38.3,29.76,SSW,202,10.2,10.2,32,0.00,,---,0.00,VWS V14.01,2013-03-16 18:03:00,
2013-03-16 14:04:00,69.4,38.3,29.76,SSW,202,10.2,10.2,32,0.00,,---,0.00,VWS V14.01,2013-03-16 18:04:00,
2013-03-16 14:06:00,69.6,38.5,29.76,SSW,202,14.9,14.9,32,0.00,,---,0.00,VWS V14.01,2013-03-16 18:06:00,
2013-03-16 14:08:00,69.7,37.7,29.75,SSW,202,12.0,12.0,31,0.00,,---,0.00,VWS V14.01,2013-03-16 18:08:00,
2013-03-16 14:09:00,69.7,37.7,29.75,SSW,202,12.0,12.0,31,0.00,,---,0.00,VWS V14.01,2013-03-16 18:09:00,
2013-03-16 14:11:00,69.9,37.9,29.75,South,180,4.9,4.9,31,0.00,,---,0.00,VWS V14.01,2013-03-16 18:11:00,
2013-03-16 14:13:00,70.3,38.3,29.75,SSE,158,11.6,11.6,31,0.00,,---,0.00,VWS V14.01,2013-03-16 18:13:00,
2013-03-16 14:14:00,70.5,38.4,29.75,SW,225,12.5,12.5,31,0.00,,---,0.00,VWS V14.01,2013-03-16 18:14:00,
2013-03-16 14:16:00,70.5,37.6,29.75,South,180,8.2,12.5,30,0.00,,---,0.00,VWS V14.01,2013-03-16 18:16:00,
2013-03-16 14:18:00,70.6,37.7,29.75,SSW,202,9.3,9.3,30,0.00,,---,0.00,VWS V14.01,2013-03-16 18:18:00,
2013-03-16 14:19:00,70.6,37.7,29.75,SSW,202,9.3,9.3,30,0.00,,---,0.00,VWS V14.01,2013-03-16 18:19:00,
2013-03-16 14:21:00,70.8,37.9,29.75,SSE,158,10.7,10.7,30,0.00,,---,0.00,VWS V14.01,2013-03-16 18:21:00,
2013-03-16 14:24:00,71.4,38.4,29.75,SSE,158,10.7,10.7,30,0.00,,---,0.00,VWS V14.01,2013-03-16 18:24:00,
2013-03-16 14:25:00,71.4,38.4,29.74,South,180,2.4,10.7,30,0.00,,---,0.00,VWS V14.01,2013-03-16 18:25:00,
2013-03-16 14:26:00,71.4,38.4,29.74,South,180,12.5,12.5,30,0.00,,---,0.00,VWS V14.01,2013-03-16 18:26:00,
2013-03-16 14:29:00,71.4,38.4,29.74,South,180,9.1,9.1,30,0.00,,---,0.00,VWS V14.01,2013-03-16 18:29:00,
2013-03-16 14:30:00,71.4,38.4,29.74,South,180,9.1,9.1,30,0.00,,---,0.00,VWS V14.01,2013-03-16 18:30:00,
2013-03-16 14:31:00,71.2,37.3,29.74,South,180,5.8,9.1,29,0.00,,---,0.00,VWS V14.01,2013-03-16 18:31:00,
2013-03-16 14:32:00,71.2,37.3,29.74,South,180,6.9,9.1,29,0.00,,---,0.00,VWS V14.01,2013-03-16 18:32:00,
2013-03-16 14:34:00,71.4,37.5,29.74,South,180,6.9,6.9,29,0.00,,---,0.00,VWS V14.01,2013-03-16 18:34:00,
2013-03-16 14:35:00,71.4,37.5,29.74,SSW,202,12.3,12.3,29,0.00,,---,0.00,VWS V14.01,2013-03-16 18:35:00,
2013-03-16 14:36:00,71.4,37.5,29.74,SSW,202,12.3,12.3,29,0.00,,---,0.00,VWS V14.01,2013-03-16 18:36:00,
2013-03-16 14:37:00,71.5,38.5,29.74,SSE,158,6.4,12.3,30,0.00,,---,0.00,VWS V14.01,2013-03-16 18:37:00,
2013-03-16 14:40:00,71.5,37.6,29.74,WSW,248,5.8,6.4,29,0.00,,---,0.00,VWS V14.01,2013-03-16 18:40:00,
2013-03-16 14:41:00,71.7,37.8,29.74,SE,135,6.4,6.4,29,0.00,,---,0.00,VWS V14.01,2013-03-16 18:41:00,
2013-03-16 14:42:00,71.7,37.8,29.74,SE,135,6.4,6.4,29,0.00,,---,0.00,VWS V14.01,2013-03-16 18:42:00,
2013-03-16 14:45:00,71.5,37.6,29.73,SSW,202,8.9,8.9,29,0.00,,---,0.00,VWS V14.01,2013-03-16 18:45:00,
2013-03-16 14:46:00,71.5,37.6,29.73,SSW,202,8.9,8.9,29,0.00,,---,0.00,VWS V14.01,2013-03-16 18:46:00,
2013-03-16 14:47:00,71.5,37.6,29.74,SSW,202,8.9,8.9,29,0.00,,---,0.00,VWS V14.01,2013-03-16 18:47:00,
2013-03-16 14:48:00,71.5,37.6,29.73,South,180,8.7,8.9,29,0.00,,---,0.00,VWS V14.01,2013-03-16 18:48:00,
2013-03-16 14:50:00,71.9,38.0,29.74,South,180,14.5,14.5,29,0.00,,---,0.00,VWS V14.01,2013-03-16 18:50:00,
2013-03-16 14:51:00,71.9,38.0,29.74,South,180,14.5,14.5,29,0.00,,---,0.00,VWS V14.01,2013-03-16 18:51:00,
2013-03-16 14:52:00,71.7,37.8,29.74,South,180,12.9,12.9,29,0.00,,---,0.00,VWS V14.01,2013-03-16 18:52:00,
2013-03-16 14:53:00,71.7,37.8,29.74,South,180,12.9,12.9,29,0.00,,---,0.00,VWS V14.01,2013-03-16 18:53:00,
2013-03-16 14:55:00,71.9,38.0,29.73,SW,225,10.0,10.0,29,0.00,,---,0.00,VWS V14.01,2013-03-16 18:55:00,
2013-03-16 14:57:00,72.1,39.0,29.73,South,180,12.7,12.7,30,0.00,,---,0.00,VWS V14.01,2013-03-16 18:57:00,
2013-03-16 14:58:00,72.3,38.3,29.73,SE,135,11.1,11.1,29,0.00,,---,0.00,VWS V14.01,2013-03-16 18:58:00,
2013-03-16 15:01:00,72.4,38.4,29.73,SSW,202,4.6,4.6,29,0.00,,---,0.00,VWS V14.01,2013-03-16 19:01:00,
2013-03-16 15:02:00,72.4,37.5,29.73,South,180,11.6,11.6,28,0.00,,---,0.00,VWS V14.01,2013-03-16 19:02:00,
2013-03-16 15:03:00,72.3,37.4,29.73,South,180,11.6,11.6,28,0.00,,---,0.00,VWS V14.01,2013-03-16 19:03:00,
2013-03-16 15:04:00,72.3,37.4,29.73,South,180,11.6,11.6,28,0.00,,---,0.00,VWS V14.01,2013-03-16 19:04:00,
2013-03-16 15:07:00,72.4,37.5,29.73,South,180,7.3,11.6,28,0.00,,---,0.00,VWS V14.01,2013-03-16 19:07:00,
2013-03-16 15:09:00,72.4,37.5,29.73,South,180,7.3,7.3,28,0.00,,---,0.00,VWS V14.01,2013-03-16 19:09:00,
2013-03-16 15:12:00,72.6,37.7,29.73,WNW,292,8.0,8.5,28,0.00,,---,0.00,VWS V14.01,2013-03-16 19:12:00,
2013-03-16 15:14:00,72.6,37.7,29.73,SSE,158,13.1,13.1,28,0.00,,---,0.00,VWS V14.01,2013-03-16 19:14:00,
2013-03-16 15:17:00,72.8,37.8,29.72,SW,225,10.7,10.7,28,0.00,,---,0.00,VWS V14.01,2013-03-16 19:17:00,
2013-03-16 15:18:00,73.2,38.2,29.72,South,180,14.7,14.7,28,0.00,,---,0.00,VWS V14.01,2013-03-16 19:18:00,
2013-03-16 15:19:00,73.2,38.2,29.72,South,180,14.3,14.7,28,0.00,,---,0.00,VWS V14.01,2013-03-16 19:19:00,
2013-03-16 15:20:00,73.2,38.2,29.72,South,180,14.3,14.7,28,0.00,,---,0.00,VWS V14.01,2013-03-16 19:20:00,
2013-03-16 15:22:00,73.3,37.3,29.72,SSW,202,19.4,19.4,27,0.00,,---,0.00,VWS V14.01,2013-03-16 19:22:00,
2013-03-16 15:23:00,73.0,37.1,29.72,SW,225,11.1,19.4,27,0.00,,---,0.00,VWS V14.01,2013-03-16 19:23:00,
2013-03-16 15:25:00,73.0,37.1,29.72,SW,225,11.1,11.1,27,0.00,,---,0.00,VWS V14.01,2013-03-16 19:25:00,
2013-03-16 15:27:00,73.2,38.2,29.72,SW,225,9.8,9.8,28,0.00,,---,0.00,VWS V14.01,2013-03-16 19:27:00,
2013-03-16 15:29:00,73.2,38.2,29.72,WNW,292,3.1,3.1,28,0.00,,---,0.00,VWS V14.01,2013-03-16 19:29:00,
2013-03-16 15:30:00,73.2,37.2,29.72,South,180,10.0,10.0,27,0.00,,---,0.00,VWS V14.01,2013-03-16 19:30:00,
2013-03-16 15:31:00,73.2,37.2,29.72,South,180,10.0,10.0,27,0.00,,---,0.00,VWS V14.01,2013-03-16 19:31:00,
2013-03-16 15:32:00,73.2,37.2,29.72,WSW,248,9.8,9.8,27,0.00,,---,0.00,VWS V14.01,2013-03-16 19:32:00,
2013-03-16 15:34:00,73.2,37.2,29.72,WSW,248,9.8,9.8,27,0.00,,---,0.00,VWS V14.01,2013-03-16 19:34:00,
2013-03-16 15:35:00,73.3,38.3,29.72,SSE,158,6.7,6.7,28,0.00,,---,0.00,VWS V14.01,2013-03-16 19:35:00,
2013-03-16 15:37:00,73.5,37.5,29.71,South,180,8.2,8.2,27,0.00,,---,0.00,VWS V14.01,2013-03-16 19:37:00,
2013-03-16 15:38:00,73.5,37.5,29.71,South,180,8.2,8.2,27,0.00,,---,0.00,VWS V14.01,2013-03-16 19:38:00,
2013-03-16 15:39:00,73.5,38.4,29.71,SSW,202,14.3,14.3,28,0.00,,---,0.00,VWS V14.01,2013-03-16 19:39:00,
2013-03-16 15:41:00,73.5,37.5,29.71,SSW,202,8.5,8.5,27,0.00,,---,0.00,VWS V14.01,2013-03-16 19:41:00,
2013-03-16 15:43:00,73.5,37.5,29.71,SSW,202,8.5,8.5,27,0.00,,---,0.00,VWS V14.01,2013-03-16 19:43:00,
2013-03-16 15:44:00,73.7,37.7,29.71,SSE,158,6.2,8.5,27,0.00,,---,0.00,VWS V14.01,2013-03-16 19:44:00,
2013-03-16 15:46:00,73.9,37.8,29.71,South,180,8.2,8.2,27,0.00,,---,0.00,VWS V14.01,2013-03-16 19:46:00,
2013-03-16 15:48:00,74.1,38.0,29.71,SSW,202,4.0,8.2,27,0.00,,---,0.00,VWS V14.01,2013-03-16 19:48:00,
2013-03-16 15:49:00,74.1,36.1,29.71,SW,225,11.4,11.4,25,0.00,,---,0.00,VWS V14.01,2013-03-16 19:49:00,
2013-03-16 15:51:00,74.2,36.2,29.71,SW,225,8.0,11.4,25,0.00,,---,0.00,VWS V14.01,2013-03-16 19:51:00,
2013-03-16 15:53:00,74.2,37.1,29.71,SW,225,8.0,8.0,26,0.00,,---,0.00,VWS V14.01,2013-03-16 19:53:00,
2013-03-16 15:54:00,74.1,36.1,29.71,South,180,16.1,16.1,25,0.00,,---,0.00,VWS V14.01,2013-03-16 19:54:00,
2013-03-16 15:58:00,74.2,38.1,29.70,SSW,202,13.8,13.8,27,0.00,,---,0.00,VWS V14.01,2013-03-16 19:58:00,
2013-03-16 15:59:00,74.2,38.1,29.70,SSW,202,13.8,13.8,27,0.00,,---,0.00,VWS V14.01,2013-03-16 19:59:00,
2013-03-16 16:04:00,74.1,36.1,29.71,SW,225,6.9,6.9,25,0.00,,---,0.00,VWS V14.01,2013-03-16 20:04:00,
2013-03-16 16:05:00,74.1,36.1,29.71,SW,225,6.9,6.9,25,0.00,,---,0.00,VWS V14.01,2013-03-16 20:05:00,
2013-03-16 16:09:00,74.4,36.3,29.70,South,180,13.8,13.8,25,0.00,,---,0.00,VWS V14.01,2013-03-16 20:09:00,
2013-03-16 16:10:00,74.4,36.3,29.70,South,180,13.8,13.8,25,0.00,,---,0.00,VWS V14.01,2013-03-16 20:10:00,
2013-03-16 16:14:00,74.4,36.3,29.70,WNW,292,8.9,8.9,25,0.00,,---,0.00,VWS V14.01,2013-03-16 20:14:00,
2013-03-16 16:15:00,74.4,36.3,29.70,WNW,292,8.9,8.9,25,0.00,,---,0.00,VWS V14.01,2013-03-16 20:15:00,
2013-03-16 16:20:00,74.1,36.1,29.70,South,180,6.2,11.4,25,0.00,,---,0.00,VWS V14.01,2013-03-16 20:20:00,
2013-03-16 16:21:00,74.1,36.1,29.70,South,180,6.2,6.2,25,0.00,,---,0.00,VWS V14.01,2013-03-16 20:21:00,
2013-03-16 16:25:00,74.4,36.3,29.70,SSW,202,12.7,14.7,25,0.00,,---,0.00,VWS V14.01,2013-03-16 20:25:00,
2013-03-16 16:26:00,74.4,36.3,29.70,SSW,202,12.7,14.7,25,0.00,,---,0.00,VWS V14.01,2013-03-16 20:26:00,
2013-03-16 16:30:00,74.6,36.5,29.70,South,180,8.2,8.2,25,0.00,,---,0.00,VWS V14.01,2013-03-16 20:30:00,
2013-03-16 16:31:00,74.6,36.5,29.70,South,180,8.2,8.2,25,0.00,,---,0.00,VWS V14.01,2013-03-16 20:31:00,
2013-03-16 16:36:00,74.1,35.0,29.70,SSW,202,7.3,7.3,24,0.00,,---,0.00,VWS V14.01,2013-03-16 20:36:00,
2013-03-16 16:37:00,74.4,36.3,29.70,SW,225,10.5,10.5,25,0.00,,---,0.00,VWS V14.01,2013-03-16 20:37:00,
2013-03-16 16:41:00,74.2,35.1,29.70,WSW,248,0.0,0.0,24,0.00,,---,0.00,VWS V14.01,2013-03-16 20:41:00,
2013-03-16 16:42:00,74.2,35.1,29.70,WSW,248,0.0,0.0,24,0.00,,---,0.00,VWS V14.01,2013-03-16 20:42:00,
2013-03-16 16:46:00,74.1,35.0,29.70,West,270,6.7,6.7,24,0.00,,---,0.00,VWS V14.01,2013-03-16 20:46:00,
2013-03-16 16:47:00,74.1,35.0,29.70,West,270,6.7,6.7,24,0.00,,---,0.00,VWS V14.01,2013-03-16 20:47:00,
2013-03-16 16:51:00,74.8,36.7,29.70,SSW,202,10.0,10.0,25,0.00,,---,0.00,VWS V14.01,2013-03-16 20:51:00,
2013-03-16 16:52:00,74.8,36.7,29.70,SSW,202,10.0,10.0,25,0.00,,---,0.00,VWS V14.01,2013-03-16 20:52:00,
2013-03-16 16:53:00,74.8,36.7,29.70,SSW,202,10.0,10.0,25,0.00,,---,0.00,VWS V14.01,2013-03-16 20:53:00,
2013-03-16 16:57:00,74.8,36.7,29.70,South,180,7.8,7.8,25,0.00,,---,0.00,VWS V14.01,2013-03-16 20:57:00,
2013-03-16 16:58:00,74.8,36.7,29.71,WSW,248,4.6,4.6,25,0.00,,---,0.00,VWS V14.01,2013-03-16 20:58:00,
2013-03-16 17:02:00,74.6,35.5,29.70,SW,225,5.5,5.5,24,0.00,,---,0.00,VWS V14.01,2013-03-16 21:02:00,
2013-03-16 17:03:00,74.6,35.5,29.71,SW,225,5.5,5.5,24,0.00,,---,0.00,VWS V14.01,2013-03-16 21:03:00,
2013-03-16 17:07:00,74.6,36.5,29.71,South,180,5.5,5.5,25,0.00,,---,0.00,VWS V14.01,2013-03-16 21:07:00,
2013-03-16 17:08:00,74.6,36.5,29.71,South,180,5.5,5.5,25,0.00,,---,0.00,VWS V14.01,2013-03-16 21:08:00,
2013-03-16 17:09:00,74.6,35.5,29.71,WSW,248,6.9,6.9,24,0.00,,---,0.00,VWS V14.01,2013-03-16 21:09:00,
2013-03-16 17:13:00,74.4,36.3,29.71,NW,315,5.3,5.3,25,0.00,,---,0.00,VWS V14.01,2013-03-16 21:13:00,
2013-03-16 17:14:00,73.7,34.7,29.71,SW,225,7.6,7.6,24,0.00,,---,0.00,VWS V14.01,2013-03-16 21:14:00,
2013-03-16 17:18:00,73.5,35.6,29.71,SW,225,9.1,9.1,25,0.00,,---,0.00,VWS V14.01,2013-03-16 21:18:00,
2013-03-16 17:19:00,73.3,36.4,29.72,SW,225,11.8,11.8,26,0.00,,---,0.00,VWS V14.01,2013-03-16 21:19:00,
2013-03-16 17:20:00,73.3,36.4,29.72,SW,225,11.8,11.8,26,0.00,,---,0.00,VWS V14.01,2013-03-16 21:20:00,
2013-03-16 17:23:00,72.8,36.0,29.72,SW,225,5.5,5.5,26,0.00,,---,0.00,VWS V14.01,2013-03-16 21:23:00,
2013-03-16 17:24:00,72.8,36.0,29.72,SW,225,5.5,5.5,26,0.00,,---,0.00,VWS V14.01,2013-03-16 21:24:00,
2013-03-16 17:25:00,72.8,36.0,29.72,SW,225,5.5,5.5,26,0.00,,---,0.00,VWS V14.01,2013-03-16 21:25:00,
2013-03-16 17:28:00,72.8,36.0,29.72,South,180,7.1,7.1,26,0.00,,---,0.00,VWS V14.01,2013-03-16 21:28:00,
2013-03-16 17:29:00,72.8,36.0,29.72,South,180,7.1,7.1,26,0.00,,---,0.00,VWS V14.01,2013-03-16 21:29:00,
2013-03-16 17:30:00,72.6,35.8,29.71,South,180,8.5,8.5,26,0.00,,---,0.00,VWS V14.01,2013-03-16 21:30:00,
2013-03-16 17:34:00,72.8,36.0,29.71,SW,225,0.0,0.0,26,0.00,,---,0.00,VWS V14.01,2013-03-16 21:34:00,
2013-03-16 17:36:00,72.6,35.8,29.71,West,270,1.3,1.3,26,0.00,,---,0.00,VWS V14.01,2013-03-16 21:36:00,
2013-03-16 17:39:00,72.6,35.8,29.71,South,180,0.0,0.0,26,0.00,,---,0.00,VWS V14.01,2013-03-16 21:39:00,
2013-03-16 17:41:00,72.6,35.8,29.71,SW,225,0.0,0.0,26,0.00,,---,0.00,VWS V14.01,2013-03-16 21:41:00,
2013-03-16 17:44:00,72.6,35.8,29.71,SSW,202,5.5,5.5,26,0.00,,---,0.00,VWS V14.01,2013-03-16 21:44:00,
2013-03-16 17:45:00,72.6,35.8,29.72,SE,135,7.8,7.8,26,0.00,,---,0.00,VWS V14.01,2013-03-16 21:45:00,
2013-03-16 17:46:00,72.6,35.8,29.72,SE,135,7.8,7.8,26,0.00,,---,0.00,VWS V14.01,2013-03-16 21:46:00,
2013-03-16 17:49:00,72.6,35.8,29.72,SE,135,7.8,7.8,26,0.00,,---,0.00,VWS V14.01,2013-03-16 21:49:00,
2013-03-16 17:50:00,72.4,35.6,29.72,WNW,292,0.0,0.0,26,0.00,,---,0.00,VWS V14.01,2013-03-16 21:50:00,
2013-03-16 17:51:00,72.6,35.8,29.72,WSW,248,5.8,5.8,26,0.00,,---,0.00,VWS V14.01,2013-03-16 21:51:00,
2013-03-16 17:54:00,72.4,35.6,29.72,SW,225,6.2,6.2,26,0.00,,---,0.00,VWS V14.01,2013-03-16 21:54:00,
2013-03-16 17:55:00,72.3,35.5,29.72,WSW,248,7.3,7.3,26,0.00,,---,0.00,VWS V14.01,2013-03-16 21:55:00,
2013-03-16 17:57:00,72.3,35.5,29.72,WSW,248,7.3,7.3,26,0.00,,---,0.00,VWS V14.01,2013-03-16 21:57:00,
2013-03-16 17:59:00,72.1,36.3,29.72,West,270,0.0,7.3,27,0.00,,---,0.00,VWS V14.01,2013-03-16 21:59:00,
2013-03-16 18:00:00,72.1,36.3,29.72,West,270,0.0,0.0,27,0.00,,---,0.00,VWS V14.01,2013-03-16 22:00:00,
2013-03-16 18:02:00,72.1,36.3,29.72,WSW,248,0.6,0.6,27,0.00,,---,0.00,VWS V14.01,2013-03-16 22:02:00,
2013-03-16 18:05:00,72.1,37.2,29.73,WSW,248,0.0,0.0,28,0.00,,---,0.00,VWS V14.01,2013-03-16 22:05:00,
2013-03-16 18:06:00,72.1,37.2,29.73,WSW,248,0.0,0.0,28,0.00,,---,0.00,VWS V14.01,2013-03-16 22:06:00,
2013-03-16 18:07:00,72.1,37.2,29.73,SSW,202,0.0,0.0,28,0.00,,---,0.00,VWS V14.01,2013-03-16 22:07:00,
2013-03-16 18:10:00,71.9,37.1,29.72,South,180,5.1,5.1,28,0.00,,---,0.00,VWS V14.01,2013-03-16 22:10:00,
2013-03-16 18:11:00,71.9,37.1,29.73,SW,225,0.0,0.0,28,0.00,,---,0.00,VWS V14.01,2013-03-16 22:11:00,
2013-03-16 18:12:00,71.9,37.1,29.73,SW,225,0.0,0.0,28,0.00,,---,0.00,VWS V14.01,2013-03-16 22:12:00,
2013-03-16 18:13:00,71.9,37.1,29.72,WSW,248,0.0,0.0,28,0.00,,---,0.00,VWS V14.01,2013-03-16 22:13:00,
2013-03-16 18:15:00,71.7,36.9,29.72,South,180,0.0,0.0,28,0.00,,---,0.00,VWS V14.01,2013-03-16 22:15:00,
2013-03-16 18:16:00,71.5,36.7,29.72,WSW,248,0.0,0.0,28,0.00,,---,0.00,VWS V14.01,2013-03-16 22:16:00,
2013-03-16 18:17:00,71.5,36.7,29.72,WSW,248,0.0,0.0,28,0.00,,---,0.00,VWS V14.01,2013-03-16 22:17:00,
2013-03-16 18:18:00,71.5,36.7,29.73,West,270,0.0,0.0,28,0.00,,---,0.00,VWS V14.01,2013-03-16 22:18:00,
2013-03-16 18:20:00,71.7,36.9,29.73,West,270,0.0,0.0,28,0.00,,---,0.00,VWS V14.01,2013-03-16 22:20:00,
2013-03-16 18:22:00,71.7,36.9,29.73,WSW,248,7.3,7.3,28,0.00,,---,0.00,VWS V14.01,2013-03-16 22:22:00,
2013-03-16 18:24:00,71.5,36.7,29.72,West,270,5.5,7.3,28,0.00,,---,0.00,VWS V14.01,2013-03-16 22:24:00,
2013-03-16 18:25:00,71.5,36.7,29.73,SW,225,8.2,8.2,28,0.00,,---,0.00,VWS V14.01,2013-03-16 22:25:00,
2013-03-16 18:27:00,71.5,36.7,29.73,SW,225,9.8,9.8,28,0.00,,---,0.00,VWS V14.01,2013-03-16 22:27:00,
2013-03-16 18:28:00,71.5,36.7,29.73,SW,225,9.8,9.8,28,0.00,,---,0.00,VWS V14.01,2013-03-16 22:28:00,
2013-03-16 18:29:00,71.5,36.7,29.73,SW,225,9.8,9.8,28,0.00,,---,0.00,VWS V14.01,2013-03-16 22:29:00,
2013-03-16 18:31:00,71.4,36.6,29.73,SW,225,0.0,0.0,28,0.00,,---,0.00,VWS V14.01,2013-03-16 22:31:00,
2013-03-16 18:32:00,71.5,36.7,29.73,SW,225,5.1,5.1,28,0.00,,---,0.00,VWS V14.01,2013-03-16 22:32:00,
2013-03-16 18:33:00,71.4,36.6,29.73,WSW,248,4.9,5.1,28,0.00,,---,0.00,VWS V14.01,2013-03-16 22:33:00,
2013-03-16 18:35:00,71.2,36.5,29.73,SW,225,10.5,10.5,28,0.00,,---,0.00,VWS V14.01,2013-03-16 22:35:00,
2013-03-16 18:36:00,71.2,36.5,29.73,SW,225,10.5,10.5,28,0.00,,---,0.00,VWS V14.01,2013-03-16 22:36:00,
2013-03-16 18:37:00,71.2,36.5,29.73,SW,225,10.5,10.5,28,0.00,,---,0.00,VWS V14.01,2013-03-16 22:37:00,
2013-03-16 18:38:00,71.4,36.6,29.73,SW,225,6.9,6.9,28,0.00,,---,0.00,VWS V14.01,2013-03-16 22:38:00,
2013-03-16 18:40:00,71.2,36.5,29.73,West,270,3.1,3.1,28,0.00,,---,0.00,VWS V14.01,2013-03-16 22:40:00,
2013-03-16 18:41:00,71.2,36.5,29.73,West,270,3.1,3.1,28,0.00,,---,0.00,VWS V14.01,2013-03-16 22:41:00,
2013-03-16 18:42:00,71.2,36.5,29.73,West,270,0.0,0.0,28,0.00,,---,0.00,VWS V14.01,2013-03-16 22:42:00,
2013-03-16 18:44:00,71.2,36.5,29.73,West,270,0.0,0.0,28,0.00,,---,0.00,VWS V14.01,2013-03-16 22:44:00,
2013-03-16 18:45:00,71.2,36.5,29.73,West,270,0.0,0.0,28,0.00,,---,0.00,VWS V14.01,2013-03-16 22:45:00,
2013-03-16 18:47:00,71.0,37.2,29.73,SSW,202,4.4,4.4,29,0.00,,---,0.00,VWS V14.01,2013-03-16 22:47:00,
2013-03-16 18:49:00,71.0,37.2,29.73,West,270,0.0,0.0,29,0.00,,---,0.00,VWS V14.01,2013-03-16 22:49:00,
2013-03-16 18:52:00,71.2,37.3,29.73,WSW,248,0.0,0.0,29,0.00,,---,0.00,VWS V14.01,2013-03-16 22:52:00,
2013-03-16 18:54:00,70.8,37.0,29.74,WSW,248,0.0,0.0,29,0.00,,---,0.00,VWS V14.01,2013-03-16 22:54:00,
2013-03-16 18:57:00,70.6,36.8,29.74,SW,225,5.1,5.1,29,0.00,,---,0.00,VWS V14.01,2013-03-16 22:57:00,
2013-03-16 18:58:00,70.6,36.8,29.74,SW,225,5.1,5.1,29,0.00,,---,0.00,VWS V14.01,2013-03-16 22:58:00,
2013-03-16 18:59:00,70.6,36.8,29.74,SW,225,5.1,5.1,29,0.00,,---,0.00,VWS V14.01,2013-03-16 22:59:00,
2013-03-16 19:02:00,70.8,37.0,29.74,WSW,248,0.0,0.0,29,0.00,,---,0.00,VWS V14.01,2013-03-16 23:02:00,
2013-03-16 19:03:00,70.8,37.0,29.74,WSW,248,0.0,0.0,29,0.00,,---,0.00,VWS V14.01,2013-03-16 23:03:00,
2013-03-16 19:04:00,70.8,37.0,29.74,WSW,248,0.0,0.0,29,0.00,,---,0.00,VWS V14.01,2013-03-16 23:04:00,
2013-03-16 19:07:00,70.8,37.0,29.74,SSW,202,0.0,0.0,29,0.00,,---,0.00,VWS V14.01,2013-03-16 23:07:00,
2013-03-16 19:08:00,70.8,37.0,29.74,SSW,202,0.0,0.0,29,0.00,,---,0.00,VWS V14.01,2013-03-16 23:08:00,
2013-03-16 19:09:00,70.8,37.0,29.74,SSW,202,0.0,0.0,29,0.00,,---,0.00,VWS V14.01,2013-03-16 23:09:00,
2013-03-16 19:13:00,70.6,36.8,29.75,SSW,202,0.0,0.0,29,0.00,,---,0.00,VWS V14.01,2013-03-16 23:13:00,
2013-03-16 19:14:00,70.6,36.8,29.75,SW,225,0.0,0.0,29,0.00,,---,0.00,VWS V14.01,2013-03-16 23:14:00,
2013-03-16 19:18:00,70.6,37.7,29.75,WSW,248,4.9,4.9,30,0.00,,---,0.00,VWS V14.01,2013-03-16 23:18:00,
2013-03-16 19:19:00,70.5,37.6,29.75,South,180,2.0,2.0,30,0.00,,---,0.00,VWS V14.01,2013-03-16 23:19:00,
2013-03-16 19:20:00,70.5,37.6,29.75,South,180,2.0,2.0,30,0.00,,---,0.00,VWS V14.01,2013-03-16 23:20:00,
2013-03-16 19:23:00,70.5,37.6,29.75,SW,225,0.0,0.0,30,0.00,,---,0.00,VWS V14.01,2013-03-16 23:23:00,
2013-03-16 19:24:00,70.5,37.6,29.75,SW,225,0.0,0.0,30,0.00,,---,0.00,VWS V14.01,2013-03-16 23:24:00,
2013-03-16 19:25:00,70.5,37.6,29.75,WSW,248,5.1,5.1,30,0.00,,---,0.00,VWS V14.01,2013-03-16 23:25:00,
2013-03-16 19:28:00,70.5,37.6,29.75,West,270,2.0,5.1,30,0.00,,---,0.00,VWS V14.01,2013-03-16 23:28:00,
2013-03-16 19:29:00,70.5,37.6,29.75,West,270,2.0,2.0,30,0.00,,---,0.00,VWS V14.01,2013-03-16 23:29:00,
2013-03-16 19:30:00,70.5,37.6,29.75,SW,225,0.0,2.0,30,0.00,,---,0.00,VWS V14.01,2013-03-16 23:30:00,
2013-03-16 19:33:00,70.5,37.6,29.75,WSW,248,0.0,0.0,30,0.00,,---,0.00,VWS V14.01,2013-03-16 23:33:00,
2013-03-16 19:34:00,70.5,37.6,29.76,WSW,248,0.0,0.0,30,0.00,,---,0.00,VWS V14.01,2013-03-16 23:34:00,
2013-03-16 19:35:00,70.5,37.6,29.76,West,270,0.0,0.0,30,0.00,,---,0.00,VWS V14.01,2013-03-16 23:35:00,
2013-03-16 19:38:00,70.3,37.4,29.76,SW,225,5.8,5.8,30,0.00,,---,0.00,VWS V14.01,2013-03-16 23:38:00,
2013-03-16 19:40:00,70.3,37.4,29.76,WSW,248,0.0,5.8,30,0.00,,---,0.00,VWS V14.01,2013-03-16 23:40:00,
2013-03-16 19:41:00,70.3,37.4,29.76,WSW,248,0.0,0.0,30,0.00,,---,0.00,VWS V14.01,2013-03-16 23:41:00,
2013-03-16 19:43:00,70.3,37.4,29.76,West,270,0.0,0.0,30,0.00,,---,0.00,VWS V14.01,2013-03-16 23:43:00,
2013-03-16 19:45:00,70.3,37.4,29.76,SW,225,0.0,0.0,30,0.00,,---,0.00,VWS V14.01,2013-03-16 23:45:00,
2013-03-16 19:46:00,70.3,37.4,29.76,SW,225,0.0,0.0,30,0.00,,---,0.00,VWS V14.01,2013-03-16 23:46:00,
2013-03-16 19:47:00,70.3,37.4,29.76,WSW,248,3.8,3.8,30,0.00,,---,0.00,VWS V14.01,2013-03-16 23:47:00,
2013-03-16 19:49:00,70.3,37.4,29.76,SW,225,0.0,0.0,30,0.00,,---,0.00,VWS V14.01,2013-03-16 23:49:00,
2013-03-16 19:50:00,70.3,37.4,29.76,SW,225,0.0,0.0,30,0.00,,---,0.00,VWS V14.01,2013-03-16 23:50:00,
2013-03-16 19:51:00,70.3,37.4,29.76,WSW,248,6.0,6.0,30,0.00,,---,0.00,VWS V14.01,2013-03-16 23:51:00,
2013-03-16 19:52:00,70.3,37.4,29.76,SSW,202,0.0,6.0,30,0.00,,---,0.00,VWS V14.01,2013-03-16 23:52:00,
2013-03-16 19:54:00,70.3,37.4,29.77,SSW,202,0.0,0.0,30,0.00,,---,0.00,VWS V14.01,2013-03-16 23:54:00,
2013-03-16 19:55:00,69.9,37.1,29.77,West,270,0.0,0.0,30,0.00,,---,0.00,VWS V14.01,2013-03-16 23:55:00,
2013-03-16 19:56:00,69.9,37.1,29.77,WSW,248,0.0,0.0,30,0.00,,---,0.00,VWS V14.01,2013-03-16 23:56:00,
2013-03-16 19:57:00,69.9,37.9,29.77,WSW,248,0.0,0.0,31,0.00,,---,0.00,VWS V14.01,2013-03-16 23:57:00,
2013-03-16 19:59:00,69.9,37.9,29.77,WSW,248,0.0,0.0,31,0.00,,---,0.00,VWS V14.01,2013-03-16 23:59:00,
2013-03-16 20:00:00,69.9,37.9,29.77,WSW,248,0.0,0.0,31,0.00,,---,0.00,VWS V14.01,2013-03-17 00:00:00,
2013-03-16 20:02:00,69.7,37.7,29.77,SW,225,0.0,0.0,31,0.00,,---,0.00,VWS V14.01,2013-03-17 00:02:00,
2013-03-16 20:05:00,69.6,37.7,29.77,SSW,202,0.0,0.0,31,0.00,,---,0.00,VWS V14.01,2013-03-17 00:05:00,
2013-03-16 20:07:00,69.4,37.5,29.77,SSW,202,0.0,0.0,31,0.00,,---,0.00,VWS V14.01,2013-03-17 00:07:00,
2013-03-16 20:10:00,69.4,37.5,29.77,WSW,248,2.2,2.2,31,0.00,,---,0.00,VWS V14.01,2013-03-17 00:10:00,
2013-03-16 20:12:00,69.4,37.5,29.77,SW,225,0.0,0.0,31,0.00,,---,0.00,VWS V14.01,2013-03-17 00:12:00,
2013-03-16 20:15:00,69.4,38.3,29.77,WSW,248,0.0,0.0,32,0.00,,---,0.00,VWS V14.01,2013-03-17 00:15:00,
2013-03-16 20:18:00,69.2,38.1,29.77,WSW,248,0.0,0.0,32,0.00,,---,0.00,VWS V14.01,2013-03-17 00:18:00,
2013-03-16 20:20:00,69.2,38.1,29.77,West,270,3.3,3.3,32,0.00,,---,0.00,VWS V14.01,2013-03-17 00:20:00,
2013-03-16 20:21:00,69.2,38.1,29.77,WSW,248,0.0,0.0,32,0.00,,---,0.00,VWS V14.01,2013-03-17 00:21:00,
2013-03-16 20:23:00,69.4,38.3,29.77,SW,225,0.0,0.0,32,0.00,,---,0.00,VWS V14.01,2013-03-17 00:23:00,
2013-03-16 20:25:00,69.2,38.1,29.78,WSW,248,0.0,0.0,32,0.00,,---,0.00,VWS V14.01,2013-03-17 00:25:00,
2013-03-16 20:28:00,69.2,38.1,29.78,WSW,248,0.0,0.0,32,0.00,,---,0.00,VWS V14.01,2013-03-17 00:28:00,
2013-03-16 20:31:00,69.0,37.9,29.78,WSW,248,0.0,0.0,32,0.00,,---,0.00,VWS V14.01,2013-03-17 00:31:00,
2013-03-16 20:33:00,68.8,38.5,29.77,SW,225,0.0,0.0,33,0.00,,---,0.00,VWS V14.01,2013-03-17 00:33:00,
2013-03-16 20:34:00,68.8,38.5,29.77,SW,225,0.0,0.0,33,0.00,,---,0.00,VWS V14.01,2013-03-17 00:34:00,
2013-03-16 20:36:00,68.7,38.5,29.78,WSW,248,0.0,0.0,33,0.00,,---,0.00,VWS V14.01,2013-03-17 00:36:00,
2013-03-16 20:38:00,68.7,38.5,29.78,WSW,248,0.0,0.0,33,0.00,,---,0.00,VWS V14.01,2013-03-17 00:38:00,
2013-03-16 20:39:00,68.7,38.5,29.78,WSW,248,0.0,0.0,33,0.00,,---,0.00,VWS V14.01,2013-03-17 00:39:00,
2013-03-16 20:42:00,68.7,38.5,29.78,WSW,248,0.0,0.0,33,0.00,,---,0.00,VWS V14.01,2013-03-17 00:42:00,
2013-03-16 20:44:00,68.7,38.5,29.78,SW,225,0.0,0.0,33,0.00,,---,0.00,VWS V14.01,2013-03-17 00:44:00,
2013-03-16 20:48:00,68.7,38.5,29.78,WSW,248,0.0,0.0,33,0.00,,---,0.00,VWS V14.01,2013-03-17 00:48:00,
2013-03-16 20:49:00,68.5,38.3,29.78,WSW,248,0.0,0.0,33,0.00,,---,0.00,VWS V14.01,2013-03-17 00:49:00,
2013-03-16 20:53:00,68.5,39.0,29.78,WSW,248,0.0,0.0,34,0.00,,---,0.00,VWS V14.01,2013-03-17 00:53:00,
2013-03-16 20:54:00,68.5,39.0,29.78,WSW,248,0.0,0.0,34,0.00,,---,0.00,VWS V14.01,2013-03-17 00:54:00,
2013-03-16 20:55:00,68.3,38.9,29.78,WSW,248,0.0,0.0,34,0.00,,---,0.00,VWS V14.01,2013-03-17 00:55:00,
2013-03-16 20:59:00,68.3,38.9,29.78,WSW,248,0.0,0.0,34,0.00,,---,0.00,VWS V14.01,2013-03-17 00:59:00,
2013-03-16 21:00:00,68.3,38.9,29.78,WSW,248,0.0,0.0,34,0.00,,---,0.00,VWS V14.01,2013-03-17 01:00:00,
2013-03-16 21:04:00,68.1,38.7,29.78,WSW,248,0.0,0.0,34,0.00,,---,0.00,VWS V14.01,2013-03-17 01:04:00,
2013-03-16 21:05:00,68.1,38.7,29.78,WSW,248,0.0,0.0,34,0.00,,---,0.00,VWS V14.01,2013-03-17 01:05:00,
2013-03-16 21:09:00,67.9,39.3,29.78,SW,225,0.0,0.0,35,0.00,,---,0.00,VWS V14.01,2013-03-17 01:09:00,
2013-03-16 21:10:00,67.9,39.3,29.78,SW,225,0.0,0.0,35,0.00,,---,0.00,VWS V14.01,2013-03-17 01:10:00,
2013-03-16 21:11:00,67.9,39.3,29.78,SW,225,0.0,0.0,35,0.00,,---,0.00,VWS V14.01,2013-03-17 01:11:00,
2013-03-16 21:14:00,67.9,39.3,29.78,West,270,0.0,0.0,35,0.00,,---,0.00,VWS V14.01,2013-03-17 01:14:00,
2013-03-16 21:15:00,67.9,39.3,29.78,West,270,0.0,0.0,35,0.00,,---,0.00,VWS V14.01,2013-03-17 01:15:00,
2013-03-16 21:16:00,67.9,39.3,29.78,West,270,0.0,0.0,35,0.00,,---,0.00,VWS V14.01,2013-03-17 01:16:00,
2013-03-16 21:19:00,67.9,39.3,29.78,WSW,248,0.0,0.0,35,0.00,,---,0.00,VWS V14.01,2013-03-17 01:19:00,
2013-03-16 21:20:00,67.9,39.3,29.78,WSW,248,0.0,0.0,35,0.00,,---,0.00,VWS V14.01,2013-03-17 01:20:00,
2013-03-16 21:21:00,67.9,39.3,29.78,WSW,248,0.0,0.0,35,0.00,,---,0.00,VWS V14.01,2013-03-17 01:21:00,
2013-03-16 21:25:00,67.9,39.3,29.79,WSW,248,0.0,0.0,35,0.00,,---,0.00,VWS V14.01,2013-03-17 01:25:00,
2013-03-16 21:26:00,67.9,39.3,29.79,WSW,248,0.0,0.0,35,0.00,,---,0.00,VWS V14.01,2013-03-17 01:26:00,
2013-03-16 21:27:00,67.9,39.3,29.78,WSW,248,0.0,0.0,35,0.00,,---,0.00,VWS V14.01,2013-03-17 01:27:00,
2013-03-16 21:31:00,67.6,39.0,29.79,WSW,248,0.0,0.0,35,0.00,,---,0.00,VWS V14.01,2013-03-17 01:31:00,
2013-03-16 21:32:00,67.6,39.0,29.79,WSW,248,0.0,0.0,35,0.00,,---,0.00,VWS V14.01,2013-03-17 01:32:00,
2013-03-16 21:36:00,67.6,39.0,29.79,WSW,248,0.0,0.0,35,0.00,,---,0.00,VWS V14.01,2013-03-17 01:36:00,
2013-03-16 21:37:00,67.6,39.0,29.79,WSW,248,0.0,0.0,35,0.00,,---,0.00,VWS V14.01,2013-03-17 01:37:00,
2013-03-16 21:38:00,67.4,38.8,29.79,WSW,248,0.0,0.0,35,0.00,,---,0.00,VWS V14.01,2013-03-17 01:38:00,
2013-03-16 21:42:00,67.4,38.8,29.80,WSW,248,0.0,0.0,35,0.00,,---,0.00,VWS V14.01,2013-03-17 01:42:00,
2013-03-16 21:44:00,67.4,38.8,29.80,WSW,248,0.0,0.0,35,0.00,,---,0.00,VWS V14.01,2013-03-17 01:44:00,
2013-03-16 21:47:00,67.4,38.8,29.80,WSW,248,0.0,0.0,35,0.00,,---,0.00,VWS V14.01,2013-03-17 01:47:00,
2013-03-16 21:48:00,67.4,38.8,29.80,WSW,248,0.0,0.0,35,0.00,,---,0.00,VWS V14.01,2013-03-17 01:48:00,
2013-03-16 21:49:00,67.4,38.8,29.80,WSW,248,0.0,0.0,35,0.00,,---,0.00,VWS V14.01,2013-03-17 01:49:00,
2013-03-16 21:52:00,67.2,38.7,29.80,SW,225,0.0,0.0,35,0.00,,---,0.00,VWS V14.01,2013-03-17 01:52:00,
2013-03-16 21:53:00,67.2,38.7,29.80,SW,225,0.0,0.0,35,0.00,,---,0.00,VWS V14.01,2013-03-17 01:53:00,
2013-03-16 21:54:00,67.2,38.7,29.80,SW,225,0.0,0.0,35,0.00,,---,0.00,VWS V14.01,2013-03-17 01:54:00,
2013-03-16 21:57:00,67.0,38.5,29.80,West,270,0.0,0.0,35,0.00,,---,0.00,VWS V14.01,2013-03-17 01:57:00,
2013-03-16 21:58:00,67.2,38.7,29.80,SSW,202,0.0,0.0,35,0.00,,---,0.00,VWS V14.01,2013-03-17 01:58:00,
2013-03-16 21:59:00,67.2,38.7,29.80,SSW,202,0.0,0.0,35,0.00,,---,0.00,VWS V14.01,2013-03-17 01:59:00,
2013-03-16 22:04:00,66.9,37.7,29.80,SW,225,0.0,0.0,34,0.00,,---,0.00,VWS V14.01,2013-03-17 02:04:00,
2013-03-16 22:09:00,66.9,37.7,29.80,SW,225,3.1,3.1,34,0.00,,---,0.00,VWS V14.01,2013-03-17 02:09:00,
2013-03-16 22:14:00,66.7,38.2,29.80,SW,225,0.0,0.0,35,0.00,,---,0.00,VWS V14.01,2013-03-17 02:14:00,
2013-03-16 22:15:00,66.7,38.2,29.80,SW,225,0.0,0.0,35,0.00,,---,0.00,VWS V14.01,2013-03-17 02:15:00,
2013-03-16 22:19:00,66.3,37.8,29.80,South,180,0.0,0.0,35,0.00,,---,0.00,VWS V14.01,2013-03-17 02:19:00,
2013-03-16 22:20:00,66.3,37.8,29.80,South,180,0.0,0.0,35,0.00,,---,0.00,VWS V14.01,2013-03-17 02:20:00,
2013-03-16 22:25:00,66.1,38.4,29.80,SSW,202,0.0,0.0,36,0.00,,---,0.00,VWS V14.01,2013-03-17 02:25:00,
2013-03-16 22:26:00,66.1,38.4,29.80,SSW,202,0.0,0.0,36,0.00,,---,0.00,VWS V14.01,2013-03-17 02:26:00,
2013-03-16 22:30:00,66.1,38.4,29.80,West,270,0.0,0.0,36,0.00,,---,0.00,VWS V14.01,2013-03-17 02:30:00,
2013-03-16 22:31:00,66.0,38.3,29.80,SW,225,0.0,0.0,36,0.00,,---,0.00,VWS V14.01,2013-03-17 02:31:00,
2013-03-16 22:35:00,65.8,38.1,29.81,SW,225,0.0,0.0,36,0.00,,---,0.00,VWS V14.01,2013-03-17 02:35:00,
2013-03-16 22:36:00,65.8,38.1,29.81,SW,225,0.0,0.0,36,0.00,,---,0.00,VWS V14.01,2013-03-17 02:36:00,
2013-03-16 22:37:00,65.8,38.1,29.81,SW,225,0.0,0.0,36,0.00,,---,0.00,VWS V14.01,2013-03-17 02:37:00,
2013-03-16 22:40:00,65.6,38.0,29.81,SW,225,0.0,0.0,36,0.00,,---,0.00,VWS V14.01,2013-03-17 02:40:00,
2013-03-16 22:41:00,65.6,38.0,29.81,SW,225,0.0,0.0,36,0.00,,---,0.00,VWS V14.01,2013-03-17 02:41:00,
2013-03-16 22:42:00,65.6,38.0,29.81,SW,225,0.0,0.0,36,0.00,,---,0.00,VWS V14.01,2013-03-17 02:42:00,
2013-03-16 22:46:00,65.2,37.6,29.82,South,180,0.0,0.0,36,0.00,,---,0.00,VWS V14.01,2013-03-17 02:46:00,
2013-03-16 22:47:00,65.2,37.6,29.82,South,180,0.0,0.0,36,0.00,,---,0.00,VWS V14.01,2013-03-17 02:47:00,
2013-03-16 22:48:00,65.1,37.5,29.82,South,180,0.0,0.0,36,0.00,,---,0.00,VWS V14.01,2013-03-17 02:48:00,
2013-03-16 22:52:00,65.1,38.2,29.82,South,180,0.0,0.0,37,0.00,,---,0.00,VWS V14.01,2013-03-17 02:52:00,
2013-03-16 22:54:00,64.9,38.0,29.82,South,180,0.0,0.0,37,0.00,,---,0.00,VWS V14.01,2013-03-17 02:54:00,
2013-03-16 22:57:00,64.9,38.7,29.82,South,180,0.0,0.0,38,0.00,,---,0.00,VWS V14.01,2013-03-17 02:57:00,
2013-03-16 22:58:00,64.9,38.7,29.82,South,180,0.0,0.0,38,0.00,,---,0.00,VWS V14.01,2013-03-17 02:58:00,
2013-03-16 22:59:00,64.9,38.7,29.82,South,180,0.0,0.0,38,0.00,,---,0.00,VWS V14.01,2013-03-17 02:59:00,
2013-03-16 23:02:00,64.7,38.5,29.82,South,180,0.0,0.0,38,0.00,,---,0.00,VWS V14.01,2013-03-17 03:02:00,
2013-03-16 23:03:00,64.7,38.5,29.82,South,180,0.0,0.0,38,0.00,,---,0.00,VWS V14.01,2013-03-17 03:03:00,
2013-03-16 23:04:00,64.7,38.5,29.82,South,180,0.0,0.0,38,0.00,,---,0.00,VWS V14.01,2013-03-17 03:04:00,
2013-03-16 23:08:00,64.7,39.2,29.82,SSW,202,0.0,0.0,39,0.00,,---,0.00,VWS V14.01,2013-03-17 03:08:00,
2013-03-16 23:09:00,64.7,39.2,29.82,SSW,202,0.0,0.0,39,0.00,,---,0.00,VWS V14.01,2013-03-17 03:09:00,
2013-03-16 23:13:00,64.5,39.0,29.82,SSW,202,0.0,0.0,39,0.00,,---,0.00,VWS V14.01,2013-03-17 03:13:00,
2013-03-16 23:14:00,64.5,39.0,29.82,SSW,202,0.0,0.0,39,0.00,,---,0.00,VWS V14.01,2013-03-17 03:14:00,
2013-03-16 23:18:00,64.7,39.2,29.82,SSW,202,0.0,0.0,39,0.00,,---,0.00,VWS V14.01,2013-03-17 03:18:00,
2013-03-16 23:19:00,64.7,39.2,29.82,SSW,202,0.0,0.0,39,0.00,,---,0.00,VWS V14.01,2013-03-17 03:19:00,
2013-03-16 23:24:00,64.7,39.2,29.82,WSW,248,0.0,0.0,39,0.00,,---,0.00,VWS V14.01,2013-03-17 03:24:00,
2013-03-16 23:25:00,64.7,39.2,29.82,WSW,248,0.0,0.0,39,0.00,,---,0.00,VWS V14.01,2013-03-17 03:25:00,
2013-03-16 23:29:00,64.7,39.2,29.82,SSW,202,0.0,0.0,39,0.00,,---,0.00,VWS V14.01,2013-03-17 03:29:00,
2013-03-16 23:30:00,64.5,39.0,29.83,WSW,248,0.0,0.0,39,0.00,,---,0.00,VWS V14.01,2013-03-17 03:30:00,
2013-03-16 23:34:00,64.5,39.0,29.83,WSW,248,0.0,0.0,39,0.00,,---,0.00,VWS V14.01,2013-03-17 03:34:00,
2013-03-16 23:36:00,64.5,39.0,29.83,WSW,248,0.0,0.0,39,0.00,,---,0.00,VWS V14.01,2013-03-17 03:36:00,
2013-03-16 23:39:00,64.5,39.0,29.83,WSW,248,0.0,0.0,39,0.00,,---,0.00,VWS V14.01,2013-03-17 03:39:00,
2013-03-16 23:40:00,64.5,39.0,29.83,WSW,248,0.0,0.0,39,0.00,,---,0.00,VWS V14.01,2013-03-17 03:40:00,
2013-03-16 23:41:00,64.7,39.2,29.83,WSW,248,0.0,0.0,39,0.00,,---,0.00,VWS V14.01,2013-03-17 03:41:00,
2013-03-16 23:44:00,64.7,38.5,29.83,West,270,0.0,0.0,38,0.00,,---,0.00,VWS V14.01,2013-03-17 03:44:00,
2013-03-16 23:45:00,64.7,38.5,29.83,West,270,0.0,0.0,38,0.00,,---,0.00,VWS V14.01,2013-03-17 03:45:00,
2013-03-16 23:46:00,64.7,38.5,29.83,West,270,0.0,0.0,38,0.00,,---,0.00,VWS V14.01,2013-03-17 03:46:00,
2013-03-16 23:49:00,64.9,38.7,29.83,West,270,0.0,0.0,38,0.00,,---,0.00,VWS V14.01,2013-03-17 03:49:00,
2013-03-16 23:50:00,64.9,38.7,29.83,West,270,0.0,0.0,38,0.00,,---,0.00,VWS V14.01,2013-03-17 03:50:00,
2013-03-16 23:51:00,64.9,38.7,29.83,West,270,0.0,0.0,38,0.00,,---,0.00,VWS V14.01,2013-03-17 03:51:00,
2013-03-16 23:54:00,64.9,38.7,29.83,West,270,0.0,0.0,38,0.00,,---,0.00,VWS V14.01,2013-03-17 03:54:00,
2013-03-16 23:55:00,64.9,38.7,29.83,West,270,0.0,0.0,38,0.00,,---,0.00,VWS V14.01,2013-03-17 03:55:00,
2013-03-16 23:57:00,64.9,38.7,29.83,SW,225,0.0,0.0,38,0.00,,---,0.00,VWS V14.01,2013-03-17 03:57:00,
2013-03-16 23:59:00,64.7,39.2,29.83,SW,225,0.0,0.0,39,0.00,,---,0.00,VWS V14.01,2013-03-17 03:59:00,